<?xml version="1.0" encoding="UTF-8" standalone="no" ?>
<gpx xmlns="http://www.topografix.com/GPX/1/1" xmlns:xsi="http://www.w3.org/2001/XMLSchema-instance" xsi:schemaLocation="http://www.topografix.com/GPX/1/1 http://www.topografix.com/GPX/1/1/gpx.xsd" version="1.1" creator="VisuGPX - https://www.visugpx.com">
  <metadata>
    <name>Rando VTT du 24/07/2013</name>
    <desc><![CDATA[Rando VTT du 24/07/2013]]></desc>
  </metadata>
  <trk>
    <name><![CDATA[Rando VTT du 24/07/2013_1]]></name>
    <trkseg>
      <trkpt lat="45.59092" lon="4.70491">
        <ele>319.77563476562</ele>
        <time>2013-07-24T13:17:50Z</time>
      </trkpt>
      <trkpt lat="45.59092" lon="4.70507">
        <ele>319.29504394531</ele>
        <time>2013-07-24T13:17:55Z</time>
      </trkpt>
      <trkpt lat="45.59085" lon="4.70515">
        <ele>317.37243652344</ele>
        <time>2013-07-24T13:17:58Z</time>
      </trkpt>
      <trkpt lat="45.59065" lon="4.70522">
        <ele>315.93041992188</ele>
        <time>2013-07-24T13:18:04Z</time>
      </trkpt>
      <trkpt lat="45.5903" lon="4.7052">
        <ele>316.41101074219</ele>
        <time>2013-07-24T13:18:13Z</time>
      </trkpt>
      <trkpt lat="45.59008" lon="4.70518">
        <ele>315.44982910156</ele>
        <time>2013-07-24T13:18:19Z</time>
      </trkpt>
      <trkpt lat="45.58985" lon="4.70517">
        <ele>314.96911621094</ele>
        <time>2013-07-24T13:18:25Z</time>
      </trkpt>
      <trkpt lat="45.58953" lon="4.70517">
        <ele>314.48840332031</ele>
        <time>2013-07-24T13:18:33Z</time>
      </trkpt>
      <trkpt lat="45.58921" lon="4.70517">
        <ele>313.52722167969</ele>
        <time>2013-07-24T13:18:41Z</time>
      </trkpt>
      <trkpt lat="45.58891" lon="4.70516">
        <ele>312.56579589844</ele>
        <time>2013-07-24T13:18:48Z</time>
      </trkpt>
      <trkpt lat="45.58876" lon="4.70522">
        <ele>312.56579589844</ele>
        <time>2013-07-24T13:18:53Z</time>
      </trkpt>
      <trkpt lat="45.58873" lon="4.70525">
        <ele>312.56579589844</ele>
        <time>2013-07-24T13:18:55Z</time>
      </trkpt>
      <trkpt lat="45.58865" lon="4.70538">
        <ele>311.6044921875</ele>
        <time>2013-07-24T13:19:00Z</time>
      </trkpt>
      <trkpt lat="45.58863" lon="4.70551">
        <ele>311.12377929688</ele>
        <time>2013-07-24T13:19:02Z</time>
      </trkpt>
      <trkpt lat="45.58865" lon="4.70607">
        <ele>308.23986816406</ele>
        <time>2013-07-24T13:19:10Z</time>
      </trkpt>
      <trkpt lat="45.58862" lon="4.70655">
        <ele>307.75927734375</ele>
        <time>2013-07-24T13:19:17Z</time>
      </trkpt>
      <trkpt lat="45.5886" lon="4.70667">
        <ele>308.23986816406</ele>
        <time>2013-07-24T13:19:19Z</time>
      </trkpt>
      <trkpt lat="45.58859" lon="4.70702">
        <ele>308.72045898438</ele>
        <time>2013-07-24T13:19:25Z</time>
      </trkpt>
      <trkpt lat="45.58862" lon="4.70756">
        <ele>308.72045898438</ele>
        <time>2013-07-24T13:19:35Z</time>
      </trkpt>
      <trkpt lat="45.58865" lon="4.70792">
        <ele>308.72045898438</ele>
        <time>2013-07-24T13:19:43Z</time>
      </trkpt>
      <trkpt lat="45.58863" lon="4.70829">
        <ele>308.72045898438</ele>
        <time>2013-07-24T13:19:52Z</time>
      </trkpt>
      <trkpt lat="45.58859" lon="4.70867">
        <ele>310.16247558594</ele>
        <time>2013-07-24T13:20:02Z</time>
      </trkpt>
      <trkpt lat="45.58858" lon="4.70904">
        <ele>310.16247558594</ele>
        <time>2013-07-24T13:20:11Z</time>
      </trkpt>
      <trkpt lat="45.58859" lon="4.70949">
        <ele>310.64306640625</ele>
        <time>2013-07-24T13:20:21Z</time>
      </trkpt>
      <trkpt lat="45.58861" lon="4.70993">
        <ele>310.64306640625</ele>
        <time>2013-07-24T13:20:31Z</time>
      </trkpt>
      <trkpt lat="45.58866" lon="4.71033">
        <ele>311.12377929688</ele>
        <time>2013-07-24T13:20:40Z</time>
      </trkpt>
      <trkpt lat="45.58871" lon="4.71075">
        <ele>311.12377929688</ele>
        <time>2013-07-24T13:20:49Z</time>
      </trkpt>
      <trkpt lat="45.58877" lon="4.7112">
        <ele>312.08520507812</ele>
        <time>2013-07-24T13:20:59Z</time>
      </trkpt>
      <trkpt lat="45.58881" lon="4.71165">
        <ele>311.6044921875</ele>
        <time>2013-07-24T13:21:09Z</time>
      </trkpt>
      <trkpt lat="45.58884" lon="4.71193">
        <ele>311.6044921875</ele>
        <time>2013-07-24T13:21:15Z</time>
      </trkpt>
      <trkpt lat="45.58887" lon="4.71228">
        <ele>311.6044921875</ele>
        <time>2013-07-24T13:21:23Z</time>
      </trkpt>
      <trkpt lat="45.58891" lon="4.71266">
        <ele>311.6044921875</ele>
        <time>2013-07-24T13:21:32Z</time>
      </trkpt>
      <trkpt lat="45.58894" lon="4.71307">
        <ele>312.08520507812</ele>
        <time>2013-07-24T13:21:41Z</time>
      </trkpt>
      <trkpt lat="45.58898" lon="4.71346">
        <ele>312.56579589844</ele>
        <time>2013-07-24T13:21:50Z</time>
      </trkpt>
      <trkpt lat="45.58902" lon="4.71383">
        <ele>313.04650878906</ele>
        <time>2013-07-24T13:21:59Z</time>
      </trkpt>
      <trkpt lat="45.58904" lon="4.71407">
        <ele>313.52722167969</ele>
        <time>2013-07-24T13:22:05Z</time>
      </trkpt>
      <trkpt lat="45.58906" lon="4.71432">
        <ele>314.48840332031</ele>
        <time>2013-07-24T13:22:12Z</time>
      </trkpt>
      <trkpt lat="45.58908" lon="4.71459">
        <ele>314.96911621094</ele>
        <time>2013-07-24T13:22:19Z</time>
      </trkpt>
      <trkpt lat="45.58908" lon="4.71482">
        <ele>315.44982910156</ele>
        <time>2013-07-24T13:22:24Z</time>
      </trkpt>
      <trkpt lat="45.58911" lon="4.71518">
        <ele>315.44982910156</ele>
        <time>2013-07-24T13:22:33Z</time>
      </trkpt>
      <trkpt lat="45.58911" lon="4.7156">
        <ele>315.44982910156</ele>
        <time>2013-07-24T13:22:42Z</time>
      </trkpt>
      <trkpt lat="45.58909" lon="4.716">
        <ele>314.96911621094</ele>
        <time>2013-07-24T13:22:51Z</time>
      </trkpt>
      <trkpt lat="45.58907" lon="4.71636">
        <ele>314.48840332031</ele>
        <time>2013-07-24T13:22:59Z</time>
      </trkpt>
      <trkpt lat="45.58904" lon="4.71682">
        <ele>314.0078125</ele>
        <time>2013-07-24T13:23:09Z</time>
      </trkpt>
      <trkpt lat="45.58903" lon="4.71726">
        <ele>315.44982910156</ele>
        <time>2013-07-24T13:23:19Z</time>
      </trkpt>
      <trkpt lat="45.58905" lon="4.7175">
        <ele>316.41101074219</ele>
        <time>2013-07-24T13:23:25Z</time>
      </trkpt>
      <trkpt lat="45.58907" lon="4.71782">
        <ele>316.41101074219</ele>
        <time>2013-07-24T13:23:33Z</time>
      </trkpt>
      <trkpt lat="45.58912" lon="4.7182">
        <ele>316.89172363281</ele>
        <time>2013-07-24T13:23:43Z</time>
      </trkpt>
      <trkpt lat="45.58917" lon="4.71855">
        <ele>317.37243652344</ele>
        <time>2013-07-24T13:23:52Z</time>
      </trkpt>
      <trkpt lat="45.5892" lon="4.71871">
        <ele>317.37243652344</ele>
        <time>2013-07-24T13:23:57Z</time>
      </trkpt>
      <trkpt lat="45.58923" lon="4.71903">
        <ele>317.37243652344</ele>
        <time>2013-07-24T13:24:06Z</time>
      </trkpt>
      <trkpt lat="45.58926" lon="4.71931">
        <ele>318.33361816406</ele>
        <time>2013-07-24T13:24:14Z</time>
      </trkpt>
      <trkpt lat="45.58928" lon="4.71958">
        <ele>318.81433105469</ele>
        <time>2013-07-24T13:24:22Z</time>
      </trkpt>
      <trkpt lat="45.58929" lon="4.71982">
        <ele>319.77563476562</ele>
        <time>2013-07-24T13:24:29Z</time>
      </trkpt>
      <trkpt lat="45.58927" lon="4.72011">
        <ele>321.2177734375</ele>
        <time>2013-07-24T13:24:39Z</time>
      </trkpt>
      <trkpt lat="45.58924" lon="4.72034">
        <ele>322.65966796875</ele>
        <time>2013-07-24T13:24:47Z</time>
      </trkpt>
      <trkpt lat="45.5892" lon="4.72052">
        <ele>324.1015625</ele>
        <time>2013-07-24T13:24:53Z</time>
      </trkpt>
      <trkpt lat="45.58918" lon="4.72069">
        <ele>324.58227539062</ele>
        <time>2013-07-24T13:24:59Z</time>
      </trkpt>
      <trkpt lat="45.58915" lon="4.72089">
        <ele>325.54357910156</ele>
        <time>2013-07-24T13:25:06Z</time>
      </trkpt>
      <trkpt lat="45.58913" lon="4.72111">
        <ele>326.02416992188</ele>
        <time>2013-07-24T13:25:14Z</time>
      </trkpt>
      <trkpt lat="45.58913" lon="4.72125">
        <ele>326.5048828125</ele>
        <time>2013-07-24T13:25:21Z</time>
      </trkpt>
      <trkpt lat="45.58913" lon="4.72134">
        <ele>326.98559570312</ele>
        <time>2013-07-24T13:25:27Z</time>
      </trkpt>
      <trkpt lat="45.58912" lon="4.7214">
        <ele>326.5048828125</ele>
        <time>2013-07-24T13:25:31Z</time>
      </trkpt>
      <trkpt lat="45.58911" lon="4.72144">
        <ele>326.5048828125</ele>
        <time>2013-07-24T13:25:34Z</time>
      </trkpt>
      <trkpt lat="45.5891" lon="4.72153">
        <ele>326.5048828125</ele>
        <time>2013-07-24T13:25:38Z</time>
      </trkpt>
      <trkpt lat="45.5891" lon="4.72172">
        <ele>326.02416992188</ele>
        <time>2013-07-24T13:25:44Z</time>
      </trkpt>
      <trkpt lat="45.58912" lon="4.72191">
        <ele>326.02416992188</ele>
        <time>2013-07-24T13:25:49Z</time>
      </trkpt>
      <trkpt lat="45.58923" lon="4.72207">
        <ele>326.98559570312</ele>
        <time>2013-07-24T13:25:54Z</time>
      </trkpt>
      <trkpt lat="45.58926" lon="4.72208">
        <ele>326.98559570312</ele>
        <time>2013-07-24T13:25:55Z</time>
      </trkpt>
      <trkpt lat="45.58946" lon="4.72219">
        <ele>327.94677734375</ele>
        <time>2013-07-24T13:26:03Z</time>
      </trkpt>
      <trkpt lat="45.58968" lon="4.7223">
        <ele>329.38891601562</ele>
        <time>2013-07-24T13:26:12Z</time>
      </trkpt>
      <trkpt lat="45.58987" lon="4.72241">
        <ele>329.38891601562</ele>
        <time>2013-07-24T13:26:20Z</time>
      </trkpt>
      <trkpt lat="45.59008" lon="4.72253">
        <ele>329.38891601562</ele>
        <time>2013-07-24T13:26:28Z</time>
      </trkpt>
      <trkpt lat="45.5903" lon="4.72264">
        <ele>329.38891601562</ele>
        <time>2013-07-24T13:26:35Z</time>
      </trkpt>
      <trkpt lat="45.59045" lon="4.72278">
        <ele>329.38891601562</ele>
        <time>2013-07-24T13:26:41Z</time>
      </trkpt>
      <trkpt lat="45.59061" lon="4.72308">
        <ele>328.90832519531</ele>
        <time>2013-07-24T13:26:50Z</time>
      </trkpt>
      <trkpt lat="45.59076" lon="4.72337">
        <ele>327.94677734375</ele>
        <time>2013-07-24T13:26:57Z</time>
      </trkpt>
      <trkpt lat="45.59093" lon="4.72363">
        <ele>326.5048828125</ele>
        <time>2013-07-24T13:27:03Z</time>
      </trkpt>
      <trkpt lat="45.591" lon="4.72372">
        <ele>325.54357910156</ele>
        <time>2013-07-24T13:27:05Z</time>
      </trkpt>
      <trkpt lat="45.59108" lon="4.72387">
        <ele>324.1015625</ele>
        <time>2013-07-24T13:27:08Z</time>
      </trkpt>
      <trkpt lat="45.59124" lon="4.7241">
        <ele>320.73706054688</ele>
        <time>2013-07-24T13:27:12Z</time>
      </trkpt>
      <trkpt lat="45.59141" lon="4.72438">
        <ele>316.89172363281</ele>
        <time>2013-07-24T13:27:16Z</time>
      </trkpt>
      <trkpt lat="45.5915" lon="4.72454">
        <ele>314.48840332031</ele>
        <time>2013-07-24T13:27:18Z</time>
      </trkpt>
      <trkpt lat="45.59167" lon="4.72501">
        <ele>310.16247558594</ele>
        <time>2013-07-24T13:27:24Z</time>
      </trkpt>
      <trkpt lat="45.5917" lon="4.7251">
        <ele>308.72045898438</ele>
        <time>2013-07-24T13:27:28Z</time>
      </trkpt>
      <trkpt lat="45.59172" lon="4.72513">
        <ele>308.72045898438</ele>
        <time>2013-07-24T13:27:34Z</time>
      </trkpt>
      <trkpt lat="45.59178" lon="4.72522">
        <ele>308.23986816406</ele>
        <time>2013-07-24T13:27:37Z</time>
      </trkpt>
      <trkpt lat="45.59198" lon="4.72534">
        <ele>306.7978515625</ele>
        <time>2013-07-24T13:27:41Z</time>
      </trkpt>
      <trkpt lat="45.59234" lon="4.7255">
        <ele>304.87524414062</ele>
        <time>2013-07-24T13:27:47Z</time>
      </trkpt>
      <trkpt lat="45.59255" lon="4.72559">
        <ele>303.43322753906</ele>
        <time>2013-07-24T13:27:51Z</time>
      </trkpt>
      <trkpt lat="45.59273" lon="4.72566">
        <ele>301.99133300781</ele>
        <time>2013-07-24T13:27:55Z</time>
      </trkpt>
      <trkpt lat="45.59287" lon="4.7256">
        <ele>301.51062011719</ele>
        <time>2013-07-24T13:27:59Z</time>
      </trkpt>
      <trkpt lat="45.59298" lon="4.72549">
        <ele>301.02990722656</ele>
        <time>2013-07-24T13:28:03Z</time>
      </trkpt>
      <trkpt lat="45.59305" lon="4.72556">
        <ele>300.06872558594</ele>
        <time>2013-07-24T13:28:05Z</time>
      </trkpt>
      <trkpt lat="45.59325" lon="4.72583">
        <ele>297.18469238281</ele>
        <time>2013-07-24T13:28:12Z</time>
      </trkpt>
      <trkpt lat="45.59332" lon="4.7259">
        <ele>296.22351074219</ele>
        <time>2013-07-24T13:28:14Z</time>
      </trkpt>
      <trkpt lat="45.59374" lon="4.72606">
        <ele>293.33935546875</ele>
        <time>2013-07-24T13:28:22Z</time>
      </trkpt>
      <trkpt lat="45.5942" lon="4.72619">
        <ele>291.8974609375</ele>
        <time>2013-07-24T13:28:30Z</time>
      </trkpt>
      <trkpt lat="45.59438" lon="4.72612">
        <ele>291.8974609375</ele>
        <time>2013-07-24T13:28:34Z</time>
      </trkpt>
      <trkpt lat="45.59448" lon="4.72599">
        <ele>292.37817382812</ele>
        <time>2013-07-24T13:28:37Z</time>
      </trkpt>
      <trkpt lat="45.59455" lon="4.72584">
        <ele>292.37817382812</ele>
        <time>2013-07-24T13:28:40Z</time>
      </trkpt>
      <trkpt lat="45.59479" lon="4.72535">
        <ele>291.8974609375</ele>
        <time>2013-07-24T13:28:49Z</time>
      </trkpt>
      <trkpt lat="45.59501" lon="4.72502">
        <ele>289.494140625</ele>
        <time>2013-07-24T13:28:54Z</time>
      </trkpt>
      <trkpt lat="45.59506" lon="4.72496">
        <ele>288.53295898438</ele>
        <time>2013-07-24T13:28:55Z</time>
      </trkpt>
      <trkpt lat="45.59529" lon="4.72491">
        <ele>286.12951660156</ele>
        <time>2013-07-24T13:28:59Z</time>
      </trkpt>
      <trkpt lat="45.59544" lon="4.72504">
        <ele>286.61022949219</ele>
        <time>2013-07-24T13:29:02Z</time>
      </trkpt>
      <trkpt lat="45.59576" lon="4.72512">
        <ele>289.01354980469</ele>
        <time>2013-07-24T13:29:08Z</time>
      </trkpt>
      <trkpt lat="45.59595" lon="4.72515">
        <ele>289.97485351562</ele>
        <time>2013-07-24T13:29:12Z</time>
      </trkpt>
      <trkpt lat="45.5961" lon="4.72514">
        <ele>290.93615722656</ele>
        <time>2013-07-24T13:29:15Z</time>
      </trkpt>
      <trkpt lat="45.59632" lon="4.72504">
        <ele>293.82006835938</ele>
        <time>2013-07-24T13:29:20Z</time>
      </trkpt>
      <trkpt lat="45.59649" lon="4.72496">
        <ele>295.26196289062</ele>
        <time>2013-07-24T13:29:27Z</time>
      </trkpt>
      <trkpt lat="45.5966" lon="4.72493">
        <ele>297.18469238281</ele>
        <time>2013-07-24T13:29:34Z</time>
      </trkpt>
      <trkpt lat="45.59671" lon="4.72495">
        <ele>296.7041015625</ele>
        <time>2013-07-24T13:29:39Z</time>
      </trkpt>
      <trkpt lat="45.59686" lon="4.72503">
        <ele>296.22351074219</ele>
        <time>2013-07-24T13:29:47Z</time>
      </trkpt>
      <trkpt lat="45.59688" lon="4.72505">
        <ele>297.18469238281</ele>
        <time>2013-07-24T13:29:49Z</time>
      </trkpt>
      <trkpt lat="45.59689" lon="4.72504">
        <ele>297.18469238281</ele>
        <time>2013-07-24T13:29:51Z</time>
      </trkpt>
      <trkpt lat="45.597" lon="4.72507">
        <ele>300.06872558594</ele>
        <time>2013-07-24T13:29:59Z</time>
      </trkpt>
      <trkpt lat="45.59711" lon="4.72509">
        <ele>302.95251464844</ele>
        <time>2013-07-24T13:30:06Z</time>
      </trkpt>
      <trkpt lat="45.59723" lon="4.72504">
        <ele>302.95251464844</ele>
        <time>2013-07-24T13:30:11Z</time>
      </trkpt>
      <trkpt lat="45.59729" lon="4.7249">
        <ele>302.47192382812</ele>
        <time>2013-07-24T13:30:16Z</time>
      </trkpt>
      <trkpt lat="45.59732" lon="4.72469">
        <ele>301.99133300781</ele>
        <time>2013-07-24T13:30:22Z</time>
      </trkpt>
      <trkpt lat="45.59735" lon="4.72431">
        <ele>301.51062011719</ele>
        <time>2013-07-24T13:30:32Z</time>
      </trkpt>
      <trkpt lat="45.59738" lon="4.72407">
        <ele>301.99133300781</ele>
        <time>2013-07-24T13:30:39Z</time>
      </trkpt>
      <trkpt lat="45.59742" lon="4.72377">
        <ele>302.95251464844</ele>
        <time>2013-07-24T13:30:47Z</time>
      </trkpt>
      <trkpt lat="45.59748" lon="4.72353">
        <ele>302.95251464844</ele>
        <time>2013-07-24T13:30:53Z</time>
      </trkpt>
      <trkpt lat="45.59756" lon="4.72328">
        <ele>302.95251464844</ele>
        <time>2013-07-24T13:30:59Z</time>
      </trkpt>
      <trkpt lat="45.59768" lon="4.72289">
        <ele>302.47192382812</ele>
        <time>2013-07-24T13:31:08Z</time>
      </trkpt>
      <trkpt lat="45.59777" lon="4.72258">
        <ele>301.51062011719</ele>
        <time>2013-07-24T13:31:15Z</time>
      </trkpt>
      <trkpt lat="45.59785" lon="4.7223">
        <ele>301.51062011719</ele>
        <time>2013-07-24T13:31:21Z</time>
      </trkpt>
      <trkpt lat="45.598" lon="4.72185">
        <ele>301.51062011719</ele>
        <time>2013-07-24T13:31:31Z</time>
      </trkpt>
      <trkpt lat="45.59812" lon="4.72147">
        <ele>300.54931640625</ele>
        <time>2013-07-24T13:31:39Z</time>
      </trkpt>
      <trkpt lat="45.59826" lon="4.72105">
        <ele>299.10729980469</ele>
        <time>2013-07-24T13:31:47Z</time>
      </trkpt>
      <trkpt lat="45.59841" lon="4.72056">
        <ele>297.18469238281</ele>
        <time>2013-07-24T13:31:55Z</time>
      </trkpt>
      <trkpt lat="45.59856" lon="4.72006">
        <ele>296.22351074219</ele>
        <time>2013-07-24T13:32:03Z</time>
      </trkpt>
      <trkpt lat="45.59872" lon="4.71954">
        <ele>293.82006835938</ele>
        <time>2013-07-24T13:32:11Z</time>
      </trkpt>
      <trkpt lat="45.59888" lon="4.719">
        <ele>292.85876464844</ele>
        <time>2013-07-24T13:32:19Z</time>
      </trkpt>
      <trkpt lat="45.599" lon="4.71854">
        <ele>292.85876464844</ele>
        <time>2013-07-24T13:32:26Z</time>
      </trkpt>
      <trkpt lat="45.59909" lon="4.71804">
        <ele>292.85876464844</ele>
        <time>2013-07-24T13:32:34Z</time>
      </trkpt>
      <trkpt lat="45.59912" lon="4.71783">
        <ele>292.85876464844</ele>
        <time>2013-07-24T13:32:38Z</time>
      </trkpt>
      <trkpt lat="45.59913" lon="4.7176">
        <ele>293.82006835938</ele>
        <time>2013-07-24T13:32:44Z</time>
      </trkpt>
      <trkpt lat="45.59919" lon="4.71741">
        <ele>293.82006835938</ele>
        <time>2013-07-24T13:32:50Z</time>
      </trkpt>
      <trkpt lat="45.59933" lon="4.71712">
        <ele>292.37817382812</ele>
        <time>2013-07-24T13:32:57Z</time>
      </trkpt>
      <trkpt lat="45.59938" lon="4.71677">
        <ele>291.8974609375</ele>
        <time>2013-07-24T13:33:03Z</time>
      </trkpt>
      <trkpt lat="45.59941" lon="4.7164">
        <ele>290.93615722656</ele>
        <time>2013-07-24T13:33:09Z</time>
      </trkpt>
      <trkpt lat="45.59953" lon="4.716">
        <ele>290.93615722656</ele>
        <time>2013-07-24T13:33:15Z</time>
      </trkpt>
      <trkpt lat="45.59966" lon="4.71549">
        <ele>290.45556640625</ele>
        <time>2013-07-24T13:33:22Z</time>
      </trkpt>
      <trkpt lat="45.5997" lon="4.71522">
        <ele>289.01354980469</ele>
        <time>2013-07-24T13:33:26Z</time>
      </trkpt>
      <trkpt lat="45.59986" lon="4.71479">
        <ele>288.53295898438</ele>
        <time>2013-07-24T13:33:33Z</time>
      </trkpt>
      <trkpt lat="45.60003" lon="4.71447">
        <ele>286.61022949219</ele>
        <time>2013-07-24T13:33:39Z</time>
      </trkpt>
      <trkpt lat="45.60025" lon="4.71418">
        <ele>286.61022949219</ele>
        <time>2013-07-24T13:33:46Z</time>
      </trkpt>
      <trkpt lat="45.60044" lon="4.71408">
        <ele>286.12951660156</ele>
        <time>2013-07-24T13:33:51Z</time>
      </trkpt>
      <trkpt lat="45.60081" lon="4.71413">
        <ele>284.20690917969</ele>
        <time>2013-07-24T13:33:58Z</time>
      </trkpt>
      <trkpt lat="45.60109" lon="4.7141">
        <ele>283.24560546875</ele>
        <time>2013-07-24T13:34:02Z</time>
      </trkpt>
      <trkpt lat="45.60147" lon="4.7139">
        <ele>281.32299804688</ele>
        <time>2013-07-24T13:34:07Z</time>
      </trkpt>
      <trkpt lat="45.60197" lon="4.71366">
        <ele>280.36169433594</ele>
        <time>2013-07-24T13:34:14Z</time>
      </trkpt>
      <trkpt lat="45.60231" lon="4.71357">
        <ele>279.40026855469</ele>
        <time>2013-07-24T13:34:20Z</time>
      </trkpt>
      <trkpt lat="45.60253" lon="4.71356">
        <ele>278.91967773438</ele>
        <time>2013-07-24T13:34:25Z</time>
      </trkpt>
      <trkpt lat="45.60263" lon="4.71358">
        <ele>278.43896484375</ele>
        <time>2013-07-24T13:34:28Z</time>
      </trkpt>
      <trkpt lat="45.60272" lon="4.71354">
        <ele>278.43896484375</ele>
        <time>2013-07-24T13:34:32Z</time>
      </trkpt>
      <trkpt lat="45.6027" lon="4.71342">
        <ele>278.91967773438</ele>
        <time>2013-07-24T13:34:36Z</time>
      </trkpt>
      <trkpt lat="45.60268" lon="4.71337">
        <ele>279.40026855469</ele>
        <time>2013-07-24T13:34:38Z</time>
      </trkpt>
      <trkpt lat="45.60259" lon="4.71309">
        <ele>282.28430175781</ele>
        <time>2013-07-24T13:34:47Z</time>
      </trkpt>
      <trkpt lat="45.60252" lon="4.71288">
        <ele>282.76501464844</ele>
        <time>2013-07-24T13:34:54Z</time>
      </trkpt>
      <trkpt lat="45.60242" lon="4.71257">
        <ele>283.72619628906</ele>
        <time>2013-07-24T13:35:04Z</time>
      </trkpt>
      <trkpt lat="45.60237" lon="4.71238">
        <ele>283.24560546875</ele>
        <time>2013-07-24T13:35:11Z</time>
      </trkpt>
      <trkpt lat="45.60231" lon="4.71223">
        <ele>283.24560546875</ele>
        <time>2013-07-24T13:35:17Z</time>
      </trkpt>
      <trkpt lat="45.60226" lon="4.71207">
        <ele>284.20690917969</ele>
        <time>2013-07-24T13:35:23Z</time>
      </trkpt>
      <trkpt lat="45.60222" lon="4.71191">
        <ele>283.72619628906</ele>
        <time>2013-07-24T13:35:29Z</time>
      </trkpt>
      <trkpt lat="45.60219" lon="4.71172">
        <ele>284.68762207031</ele>
        <time>2013-07-24T13:35:36Z</time>
      </trkpt>
      <trkpt lat="45.60218" lon="4.71153">
        <ele>286.61022949219</ele>
        <time>2013-07-24T13:35:43Z</time>
      </trkpt>
      <trkpt lat="45.60209" lon="4.71137">
        <ele>288.05224609375</ele>
        <time>2013-07-24T13:35:50Z</time>
      </trkpt>
      <trkpt lat="45.60203" lon="4.71117">
        <ele>289.01354980469</ele>
        <time>2013-07-24T13:35:56Z</time>
      </trkpt>
      <trkpt lat="45.60197" lon="4.71102">
        <ele>289.97485351562</ele>
        <time>2013-07-24T13:36:02Z</time>
      </trkpt>
      <trkpt lat="45.60191" lon="4.71086">
        <ele>289.97485351562</ele>
        <time>2013-07-24T13:36:09Z</time>
      </trkpt>
      <trkpt lat="45.60182" lon="4.71067">
        <ele>289.97485351562</ele>
        <time>2013-07-24T13:36:17Z</time>
      </trkpt>
      <trkpt lat="45.60169" lon="4.71051">
        <ele>289.97485351562</ele>
        <time>2013-07-24T13:36:25Z</time>
      </trkpt>
      <trkpt lat="45.60159" lon="4.71037">
        <ele>290.45556640625</ele>
        <time>2013-07-24T13:36:32Z</time>
      </trkpt>
      <trkpt lat="45.60154" lon="4.71026">
        <ele>290.45556640625</ele>
        <time>2013-07-24T13:36:37Z</time>
      </trkpt>
      <trkpt lat="45.60146" lon="4.71014">
        <ele>291.41674804688</ele>
        <time>2013-07-24T13:36:44Z</time>
      </trkpt>
      <trkpt lat="45.60143" lon="4.71008">
        <ele>291.8974609375</ele>
        <time>2013-07-24T13:36:50Z</time>
      </trkpt>
      <trkpt lat="45.60143" lon="4.71008">
        <ele>292.37817382812</ele>
        <time>2013-07-24T13:36:58Z</time>
      </trkpt>
      <trkpt lat="45.60141" lon="4.71007">
        <ele>292.37817382812</ele>
        <time>2013-07-24T13:37:04Z</time>
      </trkpt>
      <trkpt lat="45.60138" lon="4.71002">
        <ele>291.8974609375</ele>
        <time>2013-07-24T13:37:10Z</time>
      </trkpt>
      <trkpt lat="45.60127" lon="4.70988">
        <ele>292.85876464844</ele>
        <time>2013-07-24T13:37:17Z</time>
      </trkpt>
      <trkpt lat="45.60118" lon="4.70976">
        <ele>293.82006835938</ele>
        <time>2013-07-24T13:37:23Z</time>
      </trkpt>
      <trkpt lat="45.60107" lon="4.70966">
        <ele>295.26196289062</ele>
        <time>2013-07-24T13:37:30Z</time>
      </trkpt>
      <trkpt lat="45.60095" lon="4.70951">
        <ele>296.22351074219</ele>
        <time>2013-07-24T13:37:38Z</time>
      </trkpt>
      <trkpt lat="45.60087" lon="4.7094">
        <ele>295.74267578125</ele>
        <time>2013-07-24T13:37:44Z</time>
      </trkpt>
      <trkpt lat="45.60074" lon="4.70919">
        <ele>292.85876464844</ele>
        <time>2013-07-24T13:37:52Z</time>
      </trkpt>
      <trkpt lat="45.60066" lon="4.70908">
        <ele>291.41674804688</ele>
        <time>2013-07-24T13:37:57Z</time>
      </trkpt>
      <trkpt lat="45.60045" lon="4.70888">
        <ele>289.97485351562</ele>
        <time>2013-07-24T13:38:07Z</time>
      </trkpt>
      <trkpt lat="45.60028" lon="4.70874">
        <ele>291.41674804688</ele>
        <time>2013-07-24T13:38:15Z</time>
      </trkpt>
      <trkpt lat="45.60014" lon="4.70871">
        <ele>294.78137207031</ele>
        <time>2013-07-24T13:38:21Z</time>
      </trkpt>
      <trkpt lat="45.6" lon="4.70868">
        <ele>298.14611816406</ele>
        <time>2013-07-24T13:38:27Z</time>
      </trkpt>
      <trkpt lat="45.59989" lon="4.70866">
        <ele>299.58801269531</ele>
        <time>2013-07-24T13:38:33Z</time>
      </trkpt>
      <trkpt lat="45.59979" lon="4.70862">
        <ele>301.51062011719</ele>
        <time>2013-07-24T13:38:38Z</time>
      </trkpt>
      <trkpt lat="45.59969" lon="4.70858">
        <ele>303.43322753906</ele>
        <time>2013-07-24T13:38:45Z</time>
      </trkpt>
      <trkpt lat="45.59961" lon="4.70856">
        <ele>304.39465332031</ele>
        <time>2013-07-24T13:38:51Z</time>
      </trkpt>
      <trkpt lat="45.59949" lon="4.70856">
        <ele>303.91394042969</ele>
        <time>2013-07-24T13:38:58Z</time>
      </trkpt>
      <trkpt lat="45.59937" lon="4.70857">
        <ele>305.83666992188</ele>
        <time>2013-07-24T13:39:05Z</time>
      </trkpt>
      <trkpt lat="45.59924" lon="4.7086">
        <ele>307.75927734375</ele>
        <time>2013-07-24T13:39:13Z</time>
      </trkpt>
      <trkpt lat="45.59915" lon="4.70861">
        <ele>308.72045898438</ele>
        <time>2013-07-24T13:39:19Z</time>
      </trkpt>
      <trkpt lat="45.59914" lon="4.70862">
        <ele>308.72045898438</ele>
        <time>2013-07-24T13:39:20Z</time>
      </trkpt>
      <trkpt lat="45.59913" lon="4.70862">
        <ele>310.64306640625</ele>
        <time>2013-07-24T13:39:29Z</time>
      </trkpt>
      <trkpt lat="45.59913" lon="4.70863">
        <ele>313.04650878906</ele>
        <time>2013-07-24T13:39:43Z</time>
      </trkpt>
      <trkpt lat="45.59913" lon="4.70864">
        <ele>315.44982910156</ele>
        <time>2013-07-24T13:39:50Z</time>
      </trkpt>
      <trkpt lat="45.59912" lon="4.70864">
        <ele>316.41101074219</ele>
        <time>2013-07-24T13:39:52Z</time>
      </trkpt>
      <trkpt lat="45.59912" lon="4.70864">
        <ele>316.41101074219</ele>
        <time>2013-07-24T13:39:56Z</time>
      </trkpt>
      <trkpt lat="45.59913" lon="4.70865">
        <ele>316.89172363281</ele>
        <time>2013-07-24T13:40:00Z</time>
      </trkpt>
      <trkpt lat="45.59913" lon="4.70865">
        <ele>318.33361816406</ele>
        <time>2013-07-24T13:40:16Z</time>
      </trkpt>
      <trkpt lat="45.5991" lon="4.70868">
        <ele>325.06298828125</ele>
        <time>2013-07-24T13:41:01Z</time>
      </trkpt>
      <trkpt lat="45.59912" lon="4.70865">
        <ele>324.58227539062</ele>
        <time>2013-07-24T13:41:13Z</time>
      </trkpt>
      <trkpt lat="45.59914" lon="4.70861">
        <ele>324.1015625</ele>
        <time>2013-07-24T13:41:15Z</time>
      </trkpt>
      <trkpt lat="45.59923" lon="4.70847">
        <ele>321.2177734375</ele>
        <time>2013-07-24T13:41:21Z</time>
      </trkpt>
      <trkpt lat="45.59939" lon="4.70823">
        <ele>319.29504394531</ele>
        <time>2013-07-24T13:41:29Z</time>
      </trkpt>
      <trkpt lat="45.5996" lon="4.70796">
        <ele>315.93041992188</ele>
        <time>2013-07-24T13:41:37Z</time>
      </trkpt>
      <trkpt lat="45.59979" lon="4.70781">
        <ele>312.56579589844</ele>
        <time>2013-07-24T13:41:43Z</time>
      </trkpt>
      <trkpt lat="45.59999" lon="4.70778">
        <ele>308.72045898438</ele>
        <time>2013-07-24T13:41:48Z</time>
      </trkpt>
      <trkpt lat="45.60019" lon="4.70782">
        <ele>304.39465332031</ele>
        <time>2013-07-24T13:41:53Z</time>
      </trkpt>
      <trkpt lat="45.60041" lon="4.70791">
        <ele>301.02990722656</ele>
        <time>2013-07-24T13:41:59Z</time>
      </trkpt>
      <trkpt lat="45.60062" lon="4.70798">
        <ele>297.66540527344</ele>
        <time>2013-07-24T13:42:05Z</time>
      </trkpt>
      <trkpt lat="45.60086" lon="4.70808">
        <ele>296.7041015625</ele>
        <time>2013-07-24T13:42:11Z</time>
      </trkpt>
      <trkpt lat="45.60104" lon="4.70814">
        <ele>297.18469238281</ele>
        <time>2013-07-24T13:42:16Z</time>
      </trkpt>
      <trkpt lat="45.60131" lon="4.70822">
        <ele>298.14611816406</ele>
        <time>2013-07-24T13:42:23Z</time>
      </trkpt>
      <trkpt lat="45.60165" lon="4.7082">
        <ele>297.66540527344</ele>
        <time>2013-07-24T13:42:32Z</time>
      </trkpt>
      <trkpt lat="45.60181" lon="4.7082">
        <ele>296.7041015625</ele>
        <time>2013-07-24T13:42:38Z</time>
      </trkpt>
      <trkpt lat="45.60199" lon="4.70818">
        <ele>296.7041015625</ele>
        <time>2013-07-24T13:42:45Z</time>
      </trkpt>
      <trkpt lat="45.60221" lon="4.70818">
        <ele>295.74267578125</ele>
        <time>2013-07-24T13:42:52Z</time>
      </trkpt>
      <trkpt lat="45.60239" lon="4.70814">
        <ele>294.30078125</ele>
        <time>2013-07-24T13:42:58Z</time>
      </trkpt>
      <trkpt lat="45.60262" lon="4.7081">
        <ele>292.85876464844</ele>
        <time>2013-07-24T13:43:06Z</time>
      </trkpt>
      <trkpt lat="45.60281" lon="4.70809">
        <ele>292.37817382812</ele>
        <time>2013-07-24T13:43:11Z</time>
      </trkpt>
      <trkpt lat="45.60303" lon="4.7081">
        <ele>291.8974609375</ele>
        <time>2013-07-24T13:43:17Z</time>
      </trkpt>
      <trkpt lat="45.60327" lon="4.70813">
        <ele>291.8974609375</ele>
        <time>2013-07-24T13:43:24Z</time>
      </trkpt>
      <trkpt lat="45.60353" lon="4.70817">
        <ele>291.8974609375</ele>
        <time>2013-07-24T13:43:32Z</time>
      </trkpt>
      <trkpt lat="45.60367" lon="4.70818">
        <ele>290.93615722656</ele>
        <time>2013-07-24T13:43:37Z</time>
      </trkpt>
      <trkpt lat="45.60388" lon="4.70822">
        <ele>290.93615722656</ele>
        <time>2013-07-24T13:43:44Z</time>
      </trkpt>
      <trkpt lat="45.60406" lon="4.70826">
        <ele>290.93615722656</ele>
        <time>2013-07-24T13:43:50Z</time>
      </trkpt>
      <trkpt lat="45.60419" lon="4.70827">
        <ele>290.45556640625</ele>
        <time>2013-07-24T13:43:55Z</time>
      </trkpt>
      <trkpt lat="45.60438" lon="4.70833">
        <ele>289.494140625</ele>
        <time>2013-07-24T13:44:01Z</time>
      </trkpt>
      <trkpt lat="45.60463" lon="4.70844">
        <ele>287.57141113281</ele>
        <time>2013-07-24T13:44:07Z</time>
      </trkpt>
      <trkpt lat="45.6048" lon="4.7085">
        <ele>285.16821289062</ele>
        <time>2013-07-24T13:44:12Z</time>
      </trkpt>
      <trkpt lat="45.60497" lon="4.70853">
        <ele>283.72619628906</ele>
        <time>2013-07-24T13:44:18Z</time>
      </trkpt>
      <trkpt lat="45.60513" lon="4.70859">
        <ele>283.72619628906</ele>
        <time>2013-07-24T13:44:24Z</time>
      </trkpt>
      <trkpt lat="45.60524" lon="4.70864">
        <ele>285.16821289062</ele>
        <time>2013-07-24T13:44:29Z</time>
      </trkpt>
      <trkpt lat="45.60528" lon="4.70868">
        <ele>285.16821289062</ele>
        <time>2013-07-24T13:44:35Z</time>
      </trkpt>
      <trkpt lat="45.6053" lon="4.70868">
        <ele>285.16821289062</ele>
        <time>2013-07-24T13:44:43Z</time>
      </trkpt>
      <trkpt lat="45.60534" lon="4.70872">
        <ele>286.12951660156</ele>
        <time>2013-07-24T13:44:56Z</time>
      </trkpt>
      <trkpt lat="45.60548" lon="4.70879">
        <ele>285.16821289062</ele>
        <time>2013-07-24T13:45:03Z</time>
      </trkpt>
      <trkpt lat="45.60562" lon="4.70885">
        <ele>284.20690917969</ele>
        <time>2013-07-24T13:45:09Z</time>
      </trkpt>
      <trkpt lat="45.60577" lon="4.7089">
        <ele>284.68762207031</ele>
        <time>2013-07-24T13:45:16Z</time>
      </trkpt>
      <trkpt lat="45.6059" lon="4.70897">
        <ele>286.12951660156</ele>
        <time>2013-07-24T13:45:23Z</time>
      </trkpt>
      <trkpt lat="45.60603" lon="4.70901">
        <ele>288.53295898438</ele>
        <time>2013-07-24T13:45:30Z</time>
      </trkpt>
      <trkpt lat="45.60616" lon="4.70901">
        <ele>289.97485351562</ele>
        <time>2013-07-24T13:45:38Z</time>
      </trkpt>
      <trkpt lat="45.60626" lon="4.70902">
        <ele>289.97485351562</ele>
        <time>2013-07-24T13:45:44Z</time>
      </trkpt>
      <trkpt lat="45.60637" lon="4.70904">
        <ele>290.45556640625</ele>
        <time>2013-07-24T13:45:49Z</time>
      </trkpt>
      <trkpt lat="45.60639" lon="4.70905">
        <ele>290.93615722656</ele>
        <time>2013-07-24T13:45:50Z</time>
      </trkpt>
      <trkpt lat="45.60647" lon="4.70907">
        <ele>291.8974609375</ele>
        <time>2013-07-24T13:45:55Z</time>
      </trkpt>
      <trkpt lat="45.60648" lon="4.70907">
        <ele>291.8974609375</ele>
        <time>2013-07-24T13:45:56Z</time>
      </trkpt>
      <trkpt lat="45.60653" lon="4.70906">
        <ele>292.85876464844</ele>
        <time>2013-07-24T13:46:01Z</time>
      </trkpt>
      <trkpt lat="45.60656" lon="4.70893">
        <ele>293.33935546875</ele>
        <time>2013-07-24T13:46:08Z</time>
      </trkpt>
      <trkpt lat="45.60662" lon="4.70866">
        <ele>291.8974609375</ele>
        <time>2013-07-24T13:46:16Z</time>
      </trkpt>
      <trkpt lat="45.6067" lon="4.70841">
        <ele>291.41674804688</ele>
        <time>2013-07-24T13:46:23Z</time>
      </trkpt>
      <trkpt lat="45.60682" lon="4.70823">
        <ele>291.8974609375</ele>
        <time>2013-07-24T13:46:29Z</time>
      </trkpt>
      <trkpt lat="45.60693" lon="4.70807">
        <ele>292.37817382812</ele>
        <time>2013-07-24T13:46:35Z</time>
      </trkpt>
      <trkpt lat="45.60695" lon="4.70791">
        <ele>292.37817382812</ele>
        <time>2013-07-24T13:46:40Z</time>
      </trkpt>
      <trkpt lat="45.60688" lon="4.70775">
        <ele>291.8974609375</ele>
        <time>2013-07-24T13:46:44Z</time>
      </trkpt>
      <trkpt lat="45.60669" lon="4.70746">
        <ele>289.97485351562</ele>
        <time>2013-07-24T13:46:50Z</time>
      </trkpt>
      <trkpt lat="45.60649" lon="4.70709">
        <ele>289.01354980469</ele>
        <time>2013-07-24T13:46:56Z</time>
      </trkpt>
      <trkpt lat="45.60645" lon="4.70703">
        <ele>288.05224609375</ele>
        <time>2013-07-24T13:46:57Z</time>
      </trkpt>
      <trkpt lat="45.60633" lon="4.70685">
        <ele>287.0908203125</ele>
        <time>2013-07-24T13:47:01Z</time>
      </trkpt>
      <trkpt lat="45.6063" lon="4.70676">
        <ele>287.57141113281</ele>
        <time>2013-07-24T13:47:03Z</time>
      </trkpt>
      <trkpt lat="45.60624" lon="4.70644">
        <ele>289.01354980469</ele>
        <time>2013-07-24T13:47:09Z</time>
      </trkpt>
      <trkpt lat="45.60626" lon="4.70613">
        <ele>289.01354980469</ele>
        <time>2013-07-24T13:47:15Z</time>
      </trkpt>
      <trkpt lat="45.60626" lon="4.70585">
        <ele>289.01354980469</ele>
        <time>2013-07-24T13:47:21Z</time>
      </trkpt>
      <trkpt lat="45.60627" lon="4.70558">
        <ele>287.57141113281</ele>
        <time>2013-07-24T13:47:27Z</time>
      </trkpt>
      <trkpt lat="45.60632" lon="4.70526">
        <ele>286.61022949219</ele>
        <time>2013-07-24T13:47:33Z</time>
      </trkpt>
      <trkpt lat="45.60639" lon="4.7049">
        <ele>287.0908203125</ele>
        <time>2013-07-24T13:47:40Z</time>
      </trkpt>
      <trkpt lat="45.60647" lon="4.70442">
        <ele>289.97485351562</ele>
        <time>2013-07-24T13:47:49Z</time>
      </trkpt>
      <trkpt lat="45.60656" lon="4.70387">
        <ele>292.37817382812</ele>
        <time>2013-07-24T13:48:00Z</time>
      </trkpt>
      <trkpt lat="45.60664" lon="4.70333">
        <ele>294.30078125</ele>
        <time>2013-07-24T13:48:12Z</time>
      </trkpt>
      <trkpt lat="45.60669" lon="4.70305">
        <ele>295.26196289062</ele>
        <time>2013-07-24T13:48:19Z</time>
      </trkpt>
      <trkpt lat="45.60677" lon="4.70274">
        <ele>295.74267578125</ele>
        <time>2013-07-24T13:48:27Z</time>
      </trkpt>
      <trkpt lat="45.60684" lon="4.70248">
        <ele>296.22351074219</ele>
        <time>2013-07-24T13:48:34Z</time>
      </trkpt>
      <trkpt lat="45.60694" lon="4.70212">
        <ele>296.7041015625</ele>
        <time>2013-07-24T13:48:44Z</time>
      </trkpt>
      <trkpt lat="45.60704" lon="4.70173">
        <ele>297.18469238281</ele>
        <time>2013-07-24T13:48:54Z</time>
      </trkpt>
      <trkpt lat="45.60714" lon="4.7014">
        <ele>297.66540527344</ele>
        <time>2013-07-24T13:49:03Z</time>
      </trkpt>
      <trkpt lat="45.60722" lon="4.70106">
        <ele>298.62670898438</ele>
        <time>2013-07-24T13:49:12Z</time>
      </trkpt>
      <trkpt lat="45.60731" lon="4.70076">
        <ele>299.10729980469</ele>
        <time>2013-07-24T13:49:20Z</time>
      </trkpt>
      <trkpt lat="45.60736" lon="4.70056">
        <ele>299.58801269531</ele>
        <time>2013-07-24T13:49:26Z</time>
      </trkpt>
      <trkpt lat="45.60742" lon="4.70037">
        <ele>300.06872558594</ele>
        <time>2013-07-24T13:49:31Z</time>
      </trkpt>
      <trkpt lat="45.60746" lon="4.70017">
        <ele>301.02990722656</ele>
        <time>2013-07-24T13:49:37Z</time>
      </trkpt>
      <trkpt lat="45.60749" lon="4.69997">
        <ele>301.51062011719</ele>
        <time>2013-07-24T13:49:44Z</time>
      </trkpt>
      <trkpt lat="45.6075" lon="4.6998">
        <ele>302.47192382812</ele>
        <time>2013-07-24T13:49:50Z</time>
      </trkpt>
      <trkpt lat="45.60751" lon="4.69963">
        <ele>302.47192382812</ele>
        <time>2013-07-24T13:49:56Z</time>
      </trkpt>
      <trkpt lat="45.6075" lon="4.69958">
        <ele>302.95251464844</ele>
        <time>2013-07-24T13:49:58Z</time>
      </trkpt>
      <trkpt lat="45.60743" lon="4.69952">
        <ele>303.43322753906</ele>
        <time>2013-07-24T13:50:02Z</time>
      </trkpt>
      <trkpt lat="45.6073" lon="4.69952">
        <ele>305.35595703125</ele>
        <time>2013-07-24T13:50:09Z</time>
      </trkpt>
      <trkpt lat="45.60718" lon="4.6994">
        <ele>303.91394042969</ele>
        <time>2013-07-24T13:50:14Z</time>
      </trkpt>
      <trkpt lat="45.60704" lon="4.69925">
        <ele>306.31726074219</ele>
        <time>2013-07-24T13:50:20Z</time>
      </trkpt>
      <trkpt lat="45.60694" lon="4.69914">
        <ele>303.91394042969</ele>
        <time>2013-07-24T13:50:27Z</time>
      </trkpt>
      <trkpt lat="45.60681" lon="4.69905">
        <ele>303.43322753906</ele>
        <time>2013-07-24T13:50:35Z</time>
      </trkpt>
      <trkpt lat="45.60679" lon="4.69904">
        <ele>303.43322753906</ele>
        <time>2013-07-24T13:50:37Z</time>
      </trkpt>
      <trkpt lat="45.60675" lon="4.69905">
        <ele>303.91394042969</ele>
        <time>2013-07-24T13:50:40Z</time>
      </trkpt>
      <trkpt lat="45.60671" lon="4.69916">
        <ele>304.39465332031</ele>
        <time>2013-07-24T13:50:44Z</time>
      </trkpt>
      <trkpt lat="45.60668" lon="4.69929">
        <ele>303.43322753906</ele>
        <time>2013-07-24T13:50:49Z</time>
      </trkpt>
      <trkpt lat="45.60667" lon="4.69931">
        <ele>303.43322753906</ele>
        <time>2013-07-24T13:50:57Z</time>
      </trkpt>
      <trkpt lat="45.60665" lon="4.69934">
        <ele>304.87524414062</ele>
        <time>2013-07-24T13:51:04Z</time>
      </trkpt>
      <trkpt lat="45.60665" lon="4.69937">
        <ele>307.75927734375</ele>
        <time>2013-07-24T13:51:17Z</time>
      </trkpt>
      <trkpt lat="45.60663" lon="4.69943">
        <ele>310.16247558594</ele>
        <time>2013-07-24T13:51:27Z</time>
      </trkpt>
      <trkpt lat="45.60658" lon="4.69951">
        <ele>310.64306640625</ele>
        <time>2013-07-24T13:51:31Z</time>
      </trkpt>
      <trkpt lat="45.60648" lon="4.69951">
        <ele>307.75927734375</ele>
        <time>2013-07-24T13:51:35Z</time>
      </trkpt>
      <trkpt lat="45.60625" lon="4.69944">
        <ele>302.47192382812</ele>
        <time>2013-07-24T13:51:40Z</time>
      </trkpt>
      <trkpt lat="45.60596" lon="4.69948">
        <ele>295.26196289062</ele>
        <time>2013-07-24T13:51:46Z</time>
      </trkpt>
      <trkpt lat="45.60586" lon="4.69951">
        <ele>293.82006835938</ele>
        <time>2013-07-24T13:51:48Z</time>
      </trkpt>
      <trkpt lat="45.60576" lon="4.6996">
        <ele>291.8974609375</ele>
        <time>2013-07-24T13:51:51Z</time>
      </trkpt>
      <trkpt lat="45.60564" lon="4.69973">
        <ele>289.01354980469</ele>
        <time>2013-07-24T13:51:55Z</time>
      </trkpt>
      <trkpt lat="45.60545" lon="4.69986">
        <ele>284.68762207031</ele>
        <time>2013-07-24T13:52:00Z</time>
      </trkpt>
      <trkpt lat="45.60534" lon="4.69995">
        <ele>281.80358886719</ele>
        <time>2013-07-24T13:52:03Z</time>
      </trkpt>
      <trkpt lat="45.60521" lon="4.70014">
        <ele>279.40026855469</ele>
        <time>2013-07-24T13:52:10Z</time>
      </trkpt>
      <trkpt lat="45.60512" lon="4.70021">
        <ele>281.80358886719</ele>
        <time>2013-07-24T13:52:15Z</time>
      </trkpt>
      <trkpt lat="45.60498" lon="4.70023">
        <ele>283.72619628906</ele>
        <time>2013-07-24T13:52:22Z</time>
      </trkpt>
      <trkpt lat="45.60484" lon="4.70019">
        <ele>284.20690917969</ele>
        <time>2013-07-24T13:52:29Z</time>
      </trkpt>
      <trkpt lat="45.60473" lon="4.70018">
        <ele>286.61022949219</ele>
        <time>2013-07-24T13:52:35Z</time>
      </trkpt>
      <trkpt lat="45.60458" lon="4.70015">
        <ele>289.01354980469</ele>
        <time>2013-07-24T13:52:43Z</time>
      </trkpt>
      <trkpt lat="45.60443" lon="4.70011">
        <ele>290.45556640625</ele>
        <time>2013-07-24T13:52:52Z</time>
      </trkpt>
      <trkpt lat="45.60432" lon="4.70009">
        <ele>291.41674804688</ele>
        <time>2013-07-24T13:52:57Z</time>
      </trkpt>
      <trkpt lat="45.60412" lon="4.70005">
        <ele>293.82006835938</ele>
        <time>2013-07-24T13:53:06Z</time>
      </trkpt>
      <trkpt lat="45.60402" lon="4.70005">
        <ele>295.26196289062</ele>
        <time>2013-07-24T13:53:11Z</time>
      </trkpt>
      <trkpt lat="45.60391" lon="4.7">
        <ele>297.18469238281</ele>
        <time>2013-07-24T13:53:18Z</time>
      </trkpt>
      <trkpt lat="45.60379" lon="4.69991">
        <ele>297.66540527344</ele>
        <time>2013-07-24T13:53:25Z</time>
      </trkpt>
      <trkpt lat="45.60368" lon="4.69982">
        <ele>297.66540527344</ele>
        <time>2013-07-24T13:53:32Z</time>
      </trkpt>
      <trkpt lat="45.60356" lon="4.69973">
        <ele>296.7041015625</ele>
        <time>2013-07-24T13:53:38Z</time>
      </trkpt>
      <trkpt lat="45.60339" lon="4.69959">
        <ele>297.18469238281</ele>
        <time>2013-07-24T13:53:46Z</time>
      </trkpt>
      <trkpt lat="45.60327" lon="4.69949">
        <ele>298.14611816406</ele>
        <time>2013-07-24T13:53:52Z</time>
      </trkpt>
      <trkpt lat="45.60312" lon="4.69935">
        <ele>299.58801269531</ele>
        <time>2013-07-24T13:53:59Z</time>
      </trkpt>
      <trkpt lat="45.603" lon="4.69924">
        <ele>300.54931640625</ele>
        <time>2013-07-24T13:54:04Z</time>
      </trkpt>
      <trkpt lat="45.60283" lon="4.69909">
        <ele>301.51062011719</ele>
        <time>2013-07-24T13:54:11Z</time>
      </trkpt>
      <trkpt lat="45.60267" lon="4.69897">
        <ele>302.95251464844</ele>
        <time>2013-07-24T13:54:17Z</time>
      </trkpt>
      <trkpt lat="45.6025" lon="4.69886">
        <ele>304.39465332031</ele>
        <time>2013-07-24T13:54:24Z</time>
      </trkpt>
      <trkpt lat="45.60231" lon="4.69874">
        <ele>305.35595703125</ele>
        <time>2013-07-24T13:54:32Z</time>
      </trkpt>
      <trkpt lat="45.60217" lon="4.69865">
        <ele>306.7978515625</ele>
        <time>2013-07-24T13:54:38Z</time>
      </trkpt>
      <trkpt lat="45.60211" lon="4.69861">
        <ele>308.23986816406</ele>
        <time>2013-07-24T13:54:43Z</time>
      </trkpt>
      <trkpt lat="45.6021" lon="4.6986">
        <ele>310.16247558594</ele>
        <time>2013-07-24T13:54:49Z</time>
      </trkpt>
      <trkpt lat="45.6021" lon="4.6986">
        <ele>310.16247558594</ele>
        <time>2013-07-24T13:54:55Z</time>
      </trkpt>
      <trkpt lat="45.6021" lon="4.6986">
        <ele>311.6044921875</ele>
        <time>2013-07-24T13:55:09Z</time>
      </trkpt>
      <trkpt lat="45.6021" lon="4.69859">
        <ele>314.96911621094</ele>
        <time>2013-07-24T13:55:34Z</time>
      </trkpt>
      <trkpt lat="45.60201" lon="4.69853">
        <ele>314.96911621094</ele>
        <time>2013-07-24T13:55:40Z</time>
      </trkpt>
      <trkpt lat="45.60188" lon="4.69845">
        <ele>315.93041992188</ele>
        <time>2013-07-24T13:55:47Z</time>
      </trkpt>
      <trkpt lat="45.60178" lon="4.69839">
        <ele>316.89172363281</ele>
        <time>2013-07-24T13:55:53Z</time>
      </trkpt>
      <trkpt lat="45.60167" lon="4.69832">
        <ele>317.37243652344</ele>
        <time>2013-07-24T13:56:00Z</time>
      </trkpt>
      <trkpt lat="45.60158" lon="4.69827">
        <ele>317.85302734375</ele>
        <time>2013-07-24T13:56:06Z</time>
      </trkpt>
      <trkpt lat="45.60146" lon="4.6982">
        <ele>319.29504394531</ele>
        <time>2013-07-24T13:56:15Z</time>
      </trkpt>
      <trkpt lat="45.60142" lon="4.69817">
        <ele>319.77563476562</ele>
        <time>2013-07-24T13:56:19Z</time>
      </trkpt>
      <trkpt lat="45.60137" lon="4.69816">
        <ele>320.25634765625</ele>
        <time>2013-07-24T13:56:24Z</time>
      </trkpt>
      <trkpt lat="45.60133" lon="4.69816">
        <ele>320.73706054688</ele>
        <time>2013-07-24T13:56:26Z</time>
      </trkpt>
      <trkpt lat="45.60117" lon="4.69811">
        <ele>322.17895507812</ele>
        <time>2013-07-24T13:56:35Z</time>
      </trkpt>
      <trkpt lat="45.60099" lon="4.69809">
        <ele>323.62097167969</ele>
        <time>2013-07-24T13:56:46Z</time>
      </trkpt>
      <trkpt lat="45.60085" lon="4.69808">
        <ele>324.1015625</ele>
        <time>2013-07-24T13:56:54Z</time>
      </trkpt>
      <trkpt lat="45.60069" lon="4.69806">
        <ele>323.62097167969</ele>
        <time>2013-07-24T13:57:03Z</time>
      </trkpt>
      <trkpt lat="45.60053" lon="4.69805">
        <ele>324.1015625</ele>
        <time>2013-07-24T13:57:10Z</time>
      </trkpt>
      <trkpt lat="45.60038" lon="4.69805">
        <ele>324.1015625</ele>
        <time>2013-07-24T13:57:17Z</time>
      </trkpt>
      <trkpt lat="45.60028" lon="4.69812">
        <ele>324.1015625</ele>
        <time>2013-07-24T13:57:22Z</time>
      </trkpt>
      <trkpt lat="45.6002" lon="4.69807">
        <ele>324.1015625</ele>
        <time>2013-07-24T13:57:27Z</time>
      </trkpt>
      <trkpt lat="45.60017" lon="4.69808">
        <ele>324.1015625</ele>
        <time>2013-07-24T13:57:30Z</time>
      </trkpt>
      <trkpt lat="45.60005" lon="4.69812">
        <ele>324.1015625</ele>
        <time>2013-07-24T13:57:37Z</time>
      </trkpt>
      <trkpt lat="45.59992" lon="4.6982">
        <ele>324.1015625</ele>
        <time>2013-07-24T13:57:44Z</time>
      </trkpt>
      <trkpt lat="45.59977" lon="4.69825">
        <ele>325.54357910156</ele>
        <time>2013-07-24T13:57:51Z</time>
      </trkpt>
      <trkpt lat="45.59964" lon="4.69828">
        <ele>326.5048828125</ele>
        <time>2013-07-24T13:57:57Z</time>
      </trkpt>
      <trkpt lat="45.59949" lon="4.69829">
        <ele>327.94677734375</ele>
        <time>2013-07-24T13:58:04Z</time>
      </trkpt>
      <trkpt lat="45.59943" lon="4.69834">
        <ele>327.94677734375</ele>
        <time>2013-07-24T13:58:08Z</time>
      </trkpt>
      <trkpt lat="45.59926" lon="4.69842">
        <ele>328.90832519531</ele>
        <time>2013-07-24T13:58:16Z</time>
      </trkpt>
      <trkpt lat="45.59913" lon="4.69847">
        <ele>328.90832519531</ele>
        <time>2013-07-24T13:58:22Z</time>
      </trkpt>
      <trkpt lat="45.599" lon="4.69851">
        <ele>329.86950683594</ele>
        <time>2013-07-24T13:58:28Z</time>
      </trkpt>
      <trkpt lat="45.59883" lon="4.69857">
        <ele>331.3115234375</ele>
        <time>2013-07-24T13:58:36Z</time>
      </trkpt>
      <trkpt lat="45.59866" lon="4.69857">
        <ele>333.23413085938</ele>
        <time>2013-07-24T13:58:42Z</time>
      </trkpt>
      <trkpt lat="45.59851" lon="4.69856">
        <ele>334.67614746094</ele>
        <time>2013-07-24T13:58:49Z</time>
      </trkpt>
      <trkpt lat="45.59843" lon="4.69856">
        <ele>334.67614746094</ele>
        <time>2013-07-24T13:58:53Z</time>
      </trkpt>
      <trkpt lat="45.5984" lon="4.69853">
        <ele>335.15673828125</ele>
        <time>2013-07-24T13:58:58Z</time>
      </trkpt>
      <trkpt lat="45.5984" lon="4.69855">
        <ele>335.63732910156</ele>
        <time>2013-07-24T13:59:06Z</time>
      </trkpt>
      <trkpt lat="45.5984" lon="4.69855">
        <ele>336.59887695312</ele>
        <time>2013-07-24T13:59:15Z</time>
      </trkpt>
      <trkpt lat="45.59841" lon="4.69855">
        <ele>338.04077148438</ele>
        <time>2013-07-24T13:59:42Z</time>
      </trkpt>
      <trkpt lat="45.59842" lon="4.69854">
        <ele>336.1181640625</ele>
        <time>2013-07-24T14:00:00Z</time>
      </trkpt>
      <trkpt lat="45.59842" lon="4.69855">
        <ele>337.07946777344</ele>
        <time>2013-07-24T14:00:11Z</time>
      </trkpt>
      <trkpt lat="45.59843" lon="4.69854">
        <ele>338.04077148438</ele>
        <time>2013-07-24T14:00:37Z</time>
      </trkpt>
      <trkpt lat="45.59842" lon="4.69855">
        <ele>339.00207519531</ele>
        <time>2013-07-24T14:00:55Z</time>
      </trkpt>
      <trkpt lat="45.59843" lon="4.69855">
        <ele>336.1181640625</ele>
        <time>2013-07-24T14:01:13Z</time>
      </trkpt>
      <trkpt lat="45.59843" lon="4.69855">
        <ele>335.63732910156</ele>
        <time>2013-07-24T14:01:23Z</time>
      </trkpt>
      <trkpt lat="45.59843" lon="4.69855">
        <ele>334.67614746094</ele>
        <time>2013-07-24T14:01:37Z</time>
      </trkpt>
      <trkpt lat="45.59843" lon="4.69855">
        <ele>334.19543457031</ele>
        <time>2013-07-24T14:01:47Z</time>
      </trkpt>
      <trkpt lat="45.59843" lon="4.69853">
        <ele>333.71472167969</ele>
        <time>2013-07-24T14:01:52Z</time>
      </trkpt>
      <trkpt lat="45.59842" lon="4.69839">
        <ele>333.71472167969</ele>
        <time>2013-07-24T14:01:58Z</time>
      </trkpt>
      <trkpt lat="45.59837" lon="4.69813">
        <ele>334.67614746094</ele>
        <time>2013-07-24T14:02:06Z</time>
      </trkpt>
      <trkpt lat="45.59835" lon="4.69793">
        <ele>333.71472167969</ele>
        <time>2013-07-24T14:02:12Z</time>
      </trkpt>
      <trkpt lat="45.5983" lon="4.69765">
        <ele>334.67614746094</ele>
        <time>2013-07-24T14:02:20Z</time>
      </trkpt>
      <trkpt lat="45.59831" lon="4.69743">
        <ele>334.19543457031</ele>
        <time>2013-07-24T14:02:25Z</time>
      </trkpt>
      <trkpt lat="45.59829" lon="4.69711">
        <ele>333.23413085938</ele>
        <time>2013-07-24T14:02:31Z</time>
      </trkpt>
      <trkpt lat="45.59825" lon="4.69676">
        <ele>332.75354003906</ele>
        <time>2013-07-24T14:02:37Z</time>
      </trkpt>
      <trkpt lat="45.59819" lon="4.69637">
        <ele>333.23413085938</ele>
        <time>2013-07-24T14:02:44Z</time>
      </trkpt>
      <trkpt lat="45.59816" lon="4.69625">
        <ele>332.75354003906</ele>
        <time>2013-07-24T14:02:46Z</time>
      </trkpt>
      <trkpt lat="45.59813" lon="4.69584">
        <ele>333.71472167969</ele>
        <time>2013-07-24T14:02:53Z</time>
      </trkpt>
      <trkpt lat="45.59814" lon="4.69547">
        <ele>334.19543457031</ele>
        <time>2013-07-24T14:03:01Z</time>
      </trkpt>
      <trkpt lat="45.59809" lon="4.69508">
        <ele>333.71472167969</ele>
        <time>2013-07-24T14:03:09Z</time>
      </trkpt>
      <trkpt lat="45.59805" lon="4.69471">
        <ele>333.71472167969</ele>
        <time>2013-07-24T14:03:16Z</time>
      </trkpt>
      <trkpt lat="45.59803" lon="4.69446">
        <ele>334.67614746094</ele>
        <time>2013-07-24T14:03:23Z</time>
      </trkpt>
      <trkpt lat="45.59801" lon="4.6943">
        <ele>334.67614746094</ele>
        <time>2013-07-24T14:03:28Z</time>
      </trkpt>
      <trkpt lat="45.59798" lon="4.69408">
        <ele>335.15673828125</ele>
        <time>2013-07-24T14:03:34Z</time>
      </trkpt>
      <trkpt lat="45.59797" lon="4.69381">
        <ele>335.15673828125</ele>
        <time>2013-07-24T14:03:41Z</time>
      </trkpt>
      <trkpt lat="45.59797" lon="4.6936">
        <ele>335.15673828125</ele>
        <time>2013-07-24T14:03:47Z</time>
      </trkpt>
      <trkpt lat="45.59797" lon="4.69331">
        <ele>335.15673828125</ele>
        <time>2013-07-24T14:03:53Z</time>
      </trkpt>
      <trkpt lat="45.59791" lon="4.69293">
        <ele>334.19543457031</ele>
        <time>2013-07-24T14:04:00Z</time>
      </trkpt>
      <trkpt lat="45.59785" lon="4.69256">
        <ele>334.19543457031</ele>
        <time>2013-07-24T14:04:07Z</time>
      </trkpt>
      <trkpt lat="45.59778" lon="4.69207">
        <ele>334.19543457031</ele>
        <time>2013-07-24T14:04:16Z</time>
      </trkpt>
      <trkpt lat="45.59773" lon="4.6917">
        <ele>333.23413085938</ele>
        <time>2013-07-24T14:04:23Z</time>
      </trkpt>
      <trkpt lat="45.59767" lon="4.69122">
        <ele>332.75354003906</ele>
        <time>2013-07-24T14:04:32Z</time>
      </trkpt>
      <trkpt lat="45.59764" lon="4.69081">
        <ele>334.19543457031</ele>
        <time>2013-07-24T14:04:40Z</time>
      </trkpt>
      <trkpt lat="45.59761" lon="4.6905">
        <ele>335.15673828125</ele>
        <time>2013-07-24T14:04:47Z</time>
      </trkpt>
      <trkpt lat="45.5975" lon="4.69029">
        <ele>336.1181640625</ele>
        <time>2013-07-24T14:04:53Z</time>
      </trkpt>
      <trkpt lat="45.5974" lon="4.69">
        <ele>336.59887695312</ele>
        <time>2013-07-24T14:05:00Z</time>
      </trkpt>
      <trkpt lat="45.59732" lon="4.68963">
        <ele>337.07946777344</ele>
        <time>2013-07-24T14:05:08Z</time>
      </trkpt>
      <trkpt lat="45.5972" lon="4.68909">
        <ele>338.04077148438</ele>
        <time>2013-07-24T14:05:20Z</time>
      </trkpt>
      <trkpt lat="45.59716" lon="4.68872">
        <ele>339.48266601562</ele>
        <time>2013-07-24T14:05:29Z</time>
      </trkpt>
      <trkpt lat="45.59713" lon="4.6884">
        <ele>340.44409179688</ele>
        <time>2013-07-24T14:05:38Z</time>
      </trkpt>
      <trkpt lat="45.59715" lon="4.68816">
        <ele>340.44409179688</ele>
        <time>2013-07-24T14:05:45Z</time>
      </trkpt>
      <trkpt lat="45.59715" lon="4.68792">
        <ele>339.96337890625</ele>
        <time>2013-07-24T14:05:52Z</time>
      </trkpt>
      <trkpt lat="45.5971" lon="4.68756">
        <ele>340.44409179688</ele>
        <time>2013-07-24T14:06:02Z</time>
      </trkpt>
      <trkpt lat="45.59706" lon="4.68734">
        <ele>340.92468261719</ele>
        <time>2013-07-24T14:06:10Z</time>
      </trkpt>
      <trkpt lat="45.59703" lon="4.68714">
        <ele>341.4052734375</ele>
        <time>2013-07-24T14:06:17Z</time>
      </trkpt>
      <trkpt lat="45.59698" lon="4.68693">
        <ele>342.36669921875</ele>
        <time>2013-07-24T14:06:24Z</time>
      </trkpt>
      <trkpt lat="45.59693" lon="4.68672">
        <ele>342.84729003906</ele>
        <time>2013-07-24T14:06:31Z</time>
      </trkpt>
      <trkpt lat="45.59688" lon="4.68648">
        <ele>343.32788085938</ele>
        <time>2013-07-24T14:06:38Z</time>
      </trkpt>
      <trkpt lat="45.5969" lon="4.68623">
        <ele>343.80859375</ele>
        <time>2013-07-24T14:06:45Z</time>
      </trkpt>
      <trkpt lat="45.59688" lon="4.68598">
        <ele>344.28942871094</ele>
        <time>2013-07-24T14:06:52Z</time>
      </trkpt>
      <trkpt lat="45.5968" lon="4.68581">
        <ele>344.77001953125</ele>
        <time>2013-07-24T14:06:57Z</time>
      </trkpt>
      <trkpt lat="45.59664" lon="4.68553">
        <ele>344.77001953125</ele>
        <time>2013-07-24T14:07:05Z</time>
      </trkpt>
      <trkpt lat="45.59652" lon="4.6853">
        <ele>346.21203613281</ele>
        <time>2013-07-24T14:07:12Z</time>
      </trkpt>
      <trkpt lat="45.59642" lon="4.68509">
        <ele>348.615234375</ele>
        <time>2013-07-24T14:07:19Z</time>
      </trkpt>
      <trkpt lat="45.59628" lon="4.68481">
        <ele>351.97985839844</ele>
        <time>2013-07-24T14:07:28Z</time>
      </trkpt>
      <trkpt lat="45.59615" lon="4.6846">
        <ele>352.94116210938</ele>
        <time>2013-07-24T14:07:35Z</time>
      </trkpt>
      <trkpt lat="45.59597" lon="4.68436">
        <ele>353.421875</ele>
        <time>2013-07-24T14:07:44Z</time>
      </trkpt>
      <trkpt lat="45.59579" lon="4.68415">
        <ele>353.90258789062</ele>
        <time>2013-07-24T14:07:52Z</time>
      </trkpt>
      <trkpt lat="45.5956" lon="4.68393">
        <ele>354.86376953125</ele>
        <time>2013-07-24T14:08:00Z</time>
      </trkpt>
      <trkpt lat="45.59546" lon="4.68374">
        <ele>355.34448242188</ele>
        <time>2013-07-24T14:08:07Z</time>
      </trkpt>
      <trkpt lat="45.59533" lon="4.68353">
        <ele>355.34448242188</ele>
        <time>2013-07-24T14:08:13Z</time>
      </trkpt>
      <trkpt lat="45.59515" lon="4.68335">
        <ele>352.94116210938</ele>
        <time>2013-07-24T14:08:19Z</time>
      </trkpt>
      <trkpt lat="45.59496" lon="4.68314">
        <ele>351.49914550781</ele>
        <time>2013-07-24T14:08:25Z</time>
      </trkpt>
      <trkpt lat="45.5948" lon="4.68292">
        <ele>351.49914550781</ele>
        <time>2013-07-24T14:08:30Z</time>
      </trkpt>
      <trkpt lat="45.59457" lon="4.68258">
        <ele>351.01843261719</ele>
        <time>2013-07-24T14:08:38Z</time>
      </trkpt>
      <trkpt lat="45.59436" lon="4.68226">
        <ele>351.01843261719</ele>
        <time>2013-07-24T14:08:46Z</time>
      </trkpt>
      <trkpt lat="45.59407" lon="4.68181">
        <ele>351.97985839844</ele>
        <time>2013-07-24T14:08:57Z</time>
      </trkpt>
      <trkpt lat="45.59383" lon="4.68144">
        <ele>352.46057128906</ele>
        <time>2013-07-24T14:09:06Z</time>
      </trkpt>
      <trkpt lat="45.59362" lon="4.68109">
        <ele>352.94116210938</ele>
        <time>2013-07-24T14:09:15Z</time>
      </trkpt>
      <trkpt lat="45.59346" lon="4.68081">
        <ele>353.421875</ele>
        <time>2013-07-24T14:09:23Z</time>
      </trkpt>
      <trkpt lat="45.59328" lon="4.68052">
        <ele>354.38317871094</ele>
        <time>2013-07-24T14:09:32Z</time>
      </trkpt>
      <trkpt lat="45.5931" lon="4.68026">
        <ele>354.86376953125</ele>
        <time>2013-07-24T14:09:41Z</time>
      </trkpt>
      <trkpt lat="45.59293" lon="4.68004">
        <ele>355.34448242188</ele>
        <time>2013-07-24T14:09:49Z</time>
      </trkpt>
      <trkpt lat="45.59275" lon="4.6798">
        <ele>356.30578613281</ele>
        <time>2013-07-24T14:09:58Z</time>
      </trkpt>
      <trkpt lat="45.5926" lon="4.67961">
        <ele>356.78637695312</ele>
        <time>2013-07-24T14:10:06Z</time>
      </trkpt>
      <trkpt lat="45.59245" lon="4.67937">
        <ele>357.74780273438</ele>
        <time>2013-07-24T14:10:15Z</time>
      </trkpt>
      <trkpt lat="45.59232" lon="4.67908">
        <ele>358.22839355469</ele>
        <time>2013-07-24T14:10:25Z</time>
      </trkpt>
      <trkpt lat="45.59223" lon="4.67887">
        <ele>359.18969726562</ele>
        <time>2013-07-24T14:10:32Z</time>
      </trkpt>
      <trkpt lat="45.59215" lon="4.6787">
        <ele>359.67041015625</ele>
        <time>2013-07-24T14:10:38Z</time>
      </trkpt>
      <trkpt lat="45.59207" lon="4.67849">
        <ele>360.15112304688</ele>
        <time>2013-07-24T14:10:45Z</time>
      </trkpt>
      <trkpt lat="45.59198" lon="4.67831">
        <ele>359.67041015625</ele>
        <time>2013-07-24T14:10:51Z</time>
      </trkpt>
      <trkpt lat="45.59185" lon="4.67803">
        <ele>359.18969726562</ele>
        <time>2013-07-24T14:10:59Z</time>
      </trkpt>
      <trkpt lat="45.5917" lon="4.67772">
        <ele>358.708984375</ele>
        <time>2013-07-24T14:11:07Z</time>
      </trkpt>
      <trkpt lat="45.59156" lon="4.67739">
        <ele>359.18969726562</ele>
        <time>2013-07-24T14:11:15Z</time>
      </trkpt>
      <trkpt lat="45.59147" lon="4.67717">
        <ele>359.67041015625</ele>
        <time>2013-07-24T14:11:21Z</time>
      </trkpt>
      <trkpt lat="45.59135" lon="4.67686">
        <ele>358.22839355469</ele>
        <time>2013-07-24T14:11:29Z</time>
      </trkpt>
      <trkpt lat="45.59124" lon="4.67659">
        <ele>358.708984375</ele>
        <time>2013-07-24T14:11:36Z</time>
      </trkpt>
      <trkpt lat="45.59113" lon="4.67629">
        <ele>359.18969726562</ele>
        <time>2013-07-24T14:11:44Z</time>
      </trkpt>
      <trkpt lat="45.59105" lon="4.67602">
        <ele>359.18969726562</ele>
        <time>2013-07-24T14:11:51Z</time>
      </trkpt>
      <trkpt lat="45.59091" lon="4.67565">
        <ele>359.18969726562</ele>
        <time>2013-07-24T14:12:01Z</time>
      </trkpt>
      <trkpt lat="45.59078" lon="4.6753">
        <ele>359.18969726562</ele>
        <time>2013-07-24T14:12:10Z</time>
      </trkpt>
      <trkpt lat="45.59063" lon="4.67491">
        <ele>359.67041015625</ele>
        <time>2013-07-24T14:12:20Z</time>
      </trkpt>
      <trkpt lat="45.59051" lon="4.67457">
        <ele>360.15112304688</ele>
        <time>2013-07-24T14:12:29Z</time>
      </trkpt>
      <trkpt lat="45.5904" lon="4.67427">
        <ele>360.63171386719</ele>
        <time>2013-07-24T14:12:38Z</time>
      </trkpt>
      <trkpt lat="45.59031" lon="4.67401">
        <ele>361.11242675781</ele>
        <time>2013-07-24T14:12:47Z</time>
      </trkpt>
      <trkpt lat="45.59024" lon="4.67384">
        <ele>361.11242675781</ele>
        <time>2013-07-24T14:12:53Z</time>
      </trkpt>
      <trkpt lat="45.59019" lon="4.67383">
        <ele>361.59313964844</ele>
        <time>2013-07-24T14:12:58Z</time>
      </trkpt>
      <trkpt lat="45.59018" lon="4.67387">
        <ele>361.59313964844</ele>
        <time>2013-07-24T14:13:00Z</time>
      </trkpt>
      <trkpt lat="45.59018" lon="4.6739">
        <ele>361.59313964844</ele>
        <time>2013-07-24T14:13:02Z</time>
      </trkpt>
      <trkpt lat="45.59018" lon="4.67391">
        <ele>361.59313964844</ele>
        <time>2013-07-24T14:13:08Z</time>
      </trkpt>
      <trkpt lat="45.59017" lon="4.67391">
        <ele>361.11242675781</ele>
        <time>2013-07-24T14:13:16Z</time>
      </trkpt>
      <trkpt lat="45.59017" lon="4.67393">
        <ele>360.63171386719</ele>
        <time>2013-07-24T14:13:23Z</time>
      </trkpt>
      <trkpt lat="45.59016" lon="4.67402">
        <ele>360.15112304688</ele>
        <time>2013-07-24T14:13:27Z</time>
      </trkpt>
      <trkpt lat="45.59016" lon="4.67428">
        <ele>359.18969726562</ele>
        <time>2013-07-24T14:13:34Z</time>
      </trkpt>
      <trkpt lat="45.59019" lon="4.67463">
        <ele>357.26708984375</ele>
        <time>2013-07-24T14:13:41Z</time>
      </trkpt>
      <trkpt lat="45.59023" lon="4.67519">
        <ele>355.34448242188</ele>
        <time>2013-07-24T14:13:51Z</time>
      </trkpt>
      <trkpt lat="45.59026" lon="4.67562">
        <ele>354.38317871094</ele>
        <time>2013-07-24T14:13:59Z</time>
      </trkpt>
      <trkpt lat="45.59029" lon="4.67607">
        <ele>353.421875</ele>
        <time>2013-07-24T14:14:07Z</time>
      </trkpt>
      <trkpt lat="45.59037" lon="4.67669">
        <ele>352.94116210938</ele>
        <time>2013-07-24T14:14:18Z</time>
      </trkpt>
      <trkpt lat="45.59044" lon="4.67715">
        <ele>352.46057128906</ele>
        <time>2013-07-24T14:14:26Z</time>
      </trkpt>
      <trkpt lat="45.59047" lon="4.67777">
        <ele>351.49914550781</ele>
        <time>2013-07-24T14:14:36Z</time>
      </trkpt>
      <trkpt lat="45.59048" lon="4.67829">
        <ele>351.01843261719</ele>
        <time>2013-07-24T14:14:44Z</time>
      </trkpt>
      <trkpt lat="45.59047" lon="4.67895">
        <ele>348.615234375</ele>
        <time>2013-07-24T14:14:53Z</time>
      </trkpt>
      <trkpt lat="45.59048" lon="4.67959">
        <ele>345.73132324219</ele>
        <time>2013-07-24T14:15:01Z</time>
      </trkpt>
      <trkpt lat="45.59051" lon="4.68034">
        <ele>342.84729003906</ele>
        <time>2013-07-24T14:15:10Z</time>
      </trkpt>
      <trkpt lat="45.59053" lon="4.6811">
        <ele>341.4052734375</ele>
        <time>2013-07-24T14:15:19Z</time>
      </trkpt>
      <trkpt lat="45.59057" lon="4.68195">
        <ele>339.96337890625</ele>
        <time>2013-07-24T14:15:29Z</time>
      </trkpt>
      <trkpt lat="45.5906" lon="4.68255">
        <ele>339.96337890625</ele>
        <time>2013-07-24T14:15:36Z</time>
      </trkpt>
      <trkpt lat="45.59063" lon="4.6832">
        <ele>339.00207519531</ele>
        <time>2013-07-24T14:15:44Z</time>
      </trkpt>
      <trkpt lat="45.59064" lon="4.68357">
        <ele>338.521484375</ele>
        <time>2013-07-24T14:15:49Z</time>
      </trkpt>
      <trkpt lat="45.5906" lon="4.68413">
        <ele>332.75354003906</ele>
        <time>2013-07-24T14:15:57Z</time>
      </trkpt>
      <trkpt lat="45.59048" lon="4.68456">
        <ele>330.35021972656</ele>
        <time>2013-07-24T14:16:04Z</time>
      </trkpt>
      <trkpt lat="45.59036" lon="4.68494">
        <ele>329.86950683594</ele>
        <time>2013-07-24T14:16:12Z</time>
      </trkpt>
      <trkpt lat="45.59028" lon="4.6852">
        <ele>331.3115234375</ele>
        <time>2013-07-24T14:16:18Z</time>
      </trkpt>
      <trkpt lat="45.5902" lon="4.68544">
        <ele>333.71472167969</ele>
        <time>2013-07-24T14:16:24Z</time>
      </trkpt>
      <trkpt lat="45.5901" lon="4.68577">
        <ele>336.59887695312</ele>
        <time>2013-07-24T14:16:32Z</time>
      </trkpt>
      <trkpt lat="45.59001" lon="4.68604">
        <ele>338.04077148438</ele>
        <time>2013-07-24T14:16:37Z</time>
      </trkpt>
      <trkpt lat="45.58994" lon="4.68645">
        <ele>340.92468261719</ele>
        <time>2013-07-24T14:16:44Z</time>
      </trkpt>
      <trkpt lat="45.5899" lon="4.68676">
        <ele>342.36669921875</ele>
        <time>2013-07-24T14:16:51Z</time>
      </trkpt>
      <trkpt lat="45.58989" lon="4.68695">
        <ele>343.32788085938</ele>
        <time>2013-07-24T14:16:57Z</time>
      </trkpt>
      <trkpt lat="45.58989" lon="4.68704">
        <ele>343.32788085938</ele>
        <time>2013-07-24T14:17:04Z</time>
      </trkpt>
      <trkpt lat="45.58988" lon="4.68708">
        <ele>343.80859375</ele>
        <time>2013-07-24T14:17:07Z</time>
      </trkpt>
      <trkpt lat="45.5899" lon="4.68716">
        <ele>343.80859375</ele>
        <time>2013-07-24T14:17:13Z</time>
      </trkpt>
      <trkpt lat="45.58991" lon="4.68728">
        <ele>344.28942871094</ele>
        <time>2013-07-24T14:17:19Z</time>
      </trkpt>
      <trkpt lat="45.58992" lon="4.68748">
        <ele>344.77001953125</ele>
        <time>2013-07-24T14:17:27Z</time>
      </trkpt>
      <trkpt lat="45.58993" lon="4.68769">
        <ele>344.77001953125</ele>
        <time>2013-07-24T14:17:34Z</time>
      </trkpt>
      <trkpt lat="45.58994" lon="4.68777">
        <ele>344.77001953125</ele>
        <time>2013-07-24T14:17:38Z</time>
      </trkpt>
      <trkpt lat="45.58994" lon="4.68778">
        <ele>344.77001953125</ele>
        <time>2013-07-24T14:17:39Z</time>
      </trkpt>
      <trkpt lat="45.58994" lon="4.68782">
        <ele>344.77001953125</ele>
        <time>2013-07-24T14:17:43Z</time>
      </trkpt>
      <trkpt lat="45.5899" lon="4.68802">
        <ele>343.80859375</ele>
        <time>2013-07-24T14:17:49Z</time>
      </trkpt>
      <trkpt lat="45.5899" lon="4.68837">
        <ele>343.32788085938</ele>
        <time>2013-07-24T14:17:56Z</time>
      </trkpt>
      <trkpt lat="45.58993" lon="4.68883">
        <ele>341.88598632812</ele>
        <time>2013-07-24T14:18:03Z</time>
      </trkpt>
      <trkpt lat="45.58999" lon="4.68942">
        <ele>339.96337890625</ele>
        <time>2013-07-24T14:18:11Z</time>
      </trkpt>
      <trkpt lat="45.5901" lon="4.69006">
        <ele>339.48266601562</ele>
        <time>2013-07-24T14:18:20Z</time>
      </trkpt>
      <trkpt lat="45.59015" lon="4.69041">
        <ele>339.00207519531</ele>
        <time>2013-07-24T14:18:25Z</time>
      </trkpt>
      <trkpt lat="45.59013" lon="4.69102">
        <ele>339.00207519531</ele>
        <time>2013-07-24T14:18:34Z</time>
      </trkpt>
      <trkpt lat="45.59005" lon="4.69157">
        <ele>337.56005859375</ele>
        <time>2013-07-24T14:18:43Z</time>
      </trkpt>
      <trkpt lat="45.58997" lon="4.69218">
        <ele>336.59887695312</ele>
        <time>2013-07-24T14:18:53Z</time>
      </trkpt>
      <trkpt lat="45.58992" lon="4.69272">
        <ele>336.59887695312</ele>
        <time>2013-07-24T14:19:02Z</time>
      </trkpt>
      <trkpt lat="45.5899" lon="4.69314">
        <ele>336.1181640625</ele>
        <time>2013-07-24T14:19:10Z</time>
      </trkpt>
      <trkpt lat="45.58992" lon="4.69349">
        <ele>336.1181640625</ele>
        <time>2013-07-24T14:19:16Z</time>
      </trkpt>
      <trkpt lat="45.58991" lon="4.69383">
        <ele>337.07946777344</ele>
        <time>2013-07-24T14:19:22Z</time>
      </trkpt>
      <trkpt lat="45.5899" lon="4.69417">
        <ele>337.07946777344</ele>
        <time>2013-07-24T14:19:28Z</time>
      </trkpt>
      <trkpt lat="45.58988" lon="4.69466">
        <ele>335.63732910156</ele>
        <time>2013-07-24T14:19:36Z</time>
      </trkpt>
      <trkpt lat="45.58985" lon="4.69507">
        <ele>332.75354003906</ele>
        <time>2013-07-24T14:19:42Z</time>
      </trkpt>
      <trkpt lat="45.58985" lon="4.69512">
        <ele>332.75354003906</ele>
        <time>2013-07-24T14:19:43Z</time>
      </trkpt>
      <trkpt lat="45.58987" lon="4.69553">
        <ele>332.27282714844</ele>
        <time>2013-07-24T14:19:49Z</time>
      </trkpt>
      <trkpt lat="45.58987" lon="4.69614">
        <ele>328.90832519531</ele>
        <time>2013-07-24T14:19:55Z</time>
      </trkpt>
      <trkpt lat="45.58986" lon="4.69699">
        <ele>326.02416992188</ele>
        <time>2013-07-24T14:20:03Z</time>
      </trkpt>
      <trkpt lat="45.58985" lon="4.69735">
        <ele>324.58227539062</ele>
        <time>2013-07-24T14:20:07Z</time>
      </trkpt>
      <trkpt lat="45.58981" lon="4.69785">
        <ele>322.65966796875</ele>
        <time>2013-07-24T14:20:13Z</time>
      </trkpt>
      <trkpt lat="45.58989" lon="4.69826">
        <ele>322.65966796875</ele>
        <time>2013-07-24T14:20:18Z</time>
      </trkpt>
      <trkpt lat="45.59002" lon="4.6984">
        <ele>323.14038085938</ele>
        <time>2013-07-24T14:20:21Z</time>
      </trkpt>
      <trkpt lat="45.59047" lon="4.69887">
        <ele>326.02416992188</ele>
        <time>2013-07-24T14:20:31Z</time>
      </trkpt>
      <trkpt lat="45.59051" lon="4.69892">
        <ele>326.5048828125</ele>
        <time>2013-07-24T14:20:32Z</time>
      </trkpt>
      <trkpt lat="45.5906" lon="4.69909">
        <ele>326.98559570312</ele>
        <time>2013-07-24T14:20:36Z</time>
      </trkpt>
      <trkpt lat="45.59077" lon="4.69953">
        <ele>327.46618652344</ele>
        <time>2013-07-24T14:20:46Z</time>
      </trkpt>
      <trkpt lat="45.59094" lon="4.69975">
        <ele>327.94677734375</ele>
        <time>2013-07-24T14:20:52Z</time>
      </trkpt>
      <trkpt lat="45.59123" lon="4.69999">
        <ele>327.94677734375</ele>
        <time>2013-07-24T14:21:01Z</time>
      </trkpt>
      <trkpt lat="45.59154" lon="4.70022">
        <ele>328.42761230469</ele>
        <time>2013-07-24T14:21:10Z</time>
      </trkpt>
      <trkpt lat="45.59183" lon="4.70041">
        <ele>328.90832519531</ele>
        <time>2013-07-24T14:21:19Z</time>
      </trkpt>
      <trkpt lat="45.59208" lon="4.70058">
        <ele>329.38891601562</ele>
        <time>2013-07-24T14:21:27Z</time>
      </trkpt>
      <trkpt lat="45.59234" lon="4.70075">
        <ele>332.27282714844</ele>
        <time>2013-07-24T14:21:35Z</time>
      </trkpt>
      <trkpt lat="45.59263" lon="4.70097">
        <ele>332.27282714844</ele>
        <time>2013-07-24T14:21:44Z</time>
      </trkpt>
      <trkpt lat="45.59292" lon="4.70119">
        <ele>332.75354003906</ele>
        <time>2013-07-24T14:21:53Z</time>
      </trkpt>
      <trkpt lat="45.59306" lon="4.70131">
        <ele>332.27282714844</ele>
        <time>2013-07-24T14:21:58Z</time>
      </trkpt>
      <trkpt lat="45.59321" lon="4.70145">
        <ele>332.27282714844</ele>
        <time>2013-07-24T14:22:03Z</time>
      </trkpt>
      <trkpt lat="45.59345" lon="4.70167">
        <ele>331.79211425781</ele>
        <time>2013-07-24T14:22:11Z</time>
      </trkpt>
      <trkpt lat="45.59372" lon="4.70192">
        <ele>331.3115234375</ele>
        <time>2013-07-24T14:22:20Z</time>
      </trkpt>
      <trkpt lat="45.594" lon="4.7022">
        <ele>331.79211425781</ele>
        <time>2013-07-24T14:22:28Z</time>
      </trkpt>
      <trkpt lat="45.59426" lon="4.70246">
        <ele>331.3115234375</ele>
        <time>2013-07-24T14:22:35Z</time>
      </trkpt>
      <trkpt lat="45.59458" lon="4.70281">
        <ele>329.38891601562</ele>
        <time>2013-07-24T14:22:44Z</time>
      </trkpt>
      <trkpt lat="45.59497" lon="4.70321">
        <ele>328.90832519531</ele>
        <time>2013-07-24T14:22:54Z</time>
      </trkpt>
      <trkpt lat="45.59513" lon="4.7034">
        <ele>328.90832519531</ele>
        <time>2013-07-24T14:22:59Z</time>
      </trkpt>
      <trkpt lat="45.59528" lon="4.7038">
        <ele>327.46618652344</ele>
        <time>2013-07-24T14:23:07Z</time>
      </trkpt>
      <trkpt lat="45.59541" lon="4.70407">
        <ele>326.5048828125</ele>
        <time>2013-07-24T14:23:13Z</time>
      </trkpt>
      <trkpt lat="45.59566" lon="4.70438">
        <ele>325.06298828125</ele>
        <time>2013-07-24T14:23:20Z</time>
      </trkpt>
      <trkpt lat="45.59581" lon="4.70462">
        <ele>324.58227539062</ele>
        <time>2013-07-24T14:23:25Z</time>
      </trkpt>
      <trkpt lat="45.59588" lon="4.70483">
        <ele>324.1015625</ele>
        <time>2013-07-24T14:23:30Z</time>
      </trkpt>
      <trkpt lat="45.59589" lon="4.70485">
        <ele>324.1015625</ele>
        <time>2013-07-24T14:23:31Z</time>
      </trkpt>
      <trkpt lat="45.59607" lon="4.70498">
        <ele>324.1015625</ele>
        <time>2013-07-24T14:23:38Z</time>
      </trkpt>
      <trkpt lat="45.59632" lon="4.70523">
        <ele>324.58227539062</ele>
        <time>2013-07-24T14:23:46Z</time>
      </trkpt>
      <trkpt lat="45.5965" lon="4.70547">
        <ele>324.58227539062</ele>
        <time>2013-07-24T14:23:52Z</time>
      </trkpt>
      <trkpt lat="45.59671" lon="4.70576">
        <ele>325.06298828125</ele>
        <time>2013-07-24T14:23:59Z</time>
      </trkpt>
      <trkpt lat="45.5968" lon="4.70589">
        <ele>325.06298828125</ele>
        <time>2013-07-24T14:24:02Z</time>
      </trkpt>
      <trkpt lat="45.59707" lon="4.7062">
        <ele>322.65966796875</ele>
        <time>2013-07-24T14:24:10Z</time>
      </trkpt>
      <trkpt lat="45.59724" lon="4.70628">
        <ele>321.2177734375</ele>
        <time>2013-07-24T14:24:16Z</time>
      </trkpt>
      <trkpt lat="45.59727" lon="4.70626">
        <ele>321.2177734375</ele>
        <time>2013-07-24T14:24:17Z</time>
      </trkpt>
      <trkpt lat="45.59743" lon="4.70605">
        <ele>320.25634765625</ele>
        <time>2013-07-24T14:24:23Z</time>
      </trkpt>
      <trkpt lat="45.59748" lon="4.70583">
        <ele>319.29504394531</ele>
        <time>2013-07-24T14:24:27Z</time>
      </trkpt>
      <trkpt lat="45.59759" lon="4.70544">
        <ele>319.77563476562</ele>
        <time>2013-07-24T14:24:34Z</time>
      </trkpt>
      <trkpt lat="45.59771" lon="4.70513">
        <ele>320.73706054688</ele>
        <time>2013-07-24T14:24:41Z</time>
      </trkpt>
      <trkpt lat="45.59781" lon="4.70491">
        <ele>321.2177734375</ele>
        <time>2013-07-24T14:24:46Z</time>
      </trkpt>
      <trkpt lat="45.59788" lon="4.70471">
        <ele>322.65966796875</ele>
        <time>2013-07-24T14:24:51Z</time>
      </trkpt>
      <trkpt lat="45.59795" lon="4.70446">
        <ele>322.65966796875</ele>
        <time>2013-07-24T14:24:56Z</time>
      </trkpt>
      <trkpt lat="45.59804" lon="4.70421">
        <ele>322.65966796875</ele>
        <time>2013-07-24T14:25:00Z</time>
      </trkpt>
      <trkpt lat="45.59821" lon="4.70373">
        <ele>324.1015625</ele>
        <time>2013-07-24T14:25:07Z</time>
      </trkpt>
      <trkpt lat="45.59826" lon="4.7036">
        <ele>325.06298828125</ele>
        <time>2013-07-24T14:25:09Z</time>
      </trkpt>
      <trkpt lat="45.59834" lon="4.70333">
        <ele>326.98559570312</ele>
        <time>2013-07-24T14:25:13Z</time>
      </trkpt>
      <trkpt lat="45.59851" lon="4.70281">
        <ele>325.06298828125</ele>
        <time>2013-07-24T14:25:21Z</time>
      </trkpt>
      <trkpt lat="45.59864" lon="4.70239">
        <ele>324.1015625</ele>
        <time>2013-07-24T14:25:27Z</time>
      </trkpt>
      <trkpt lat="45.5988" lon="4.70194">
        <ele>324.1015625</ele>
        <time>2013-07-24T14:25:34Z</time>
      </trkpt>
      <trkpt lat="45.59883" lon="4.70182">
        <ele>324.1015625</ele>
        <time>2013-07-24T14:25:36Z</time>
      </trkpt>
      <trkpt lat="45.59893" lon="4.70143">
        <ele>322.17895507812</ele>
        <time>2013-07-24T14:25:43Z</time>
      </trkpt>
      <trkpt lat="45.59898" lon="4.7013">
        <ele>322.65966796875</ele>
        <time>2013-07-24T14:25:48Z</time>
      </trkpt>
      <trkpt lat="45.59904" lon="4.70117">
        <ele>322.17895507812</ele>
        <time>2013-07-24T14:25:53Z</time>
      </trkpt>
      <trkpt lat="45.59903" lon="4.70098">
        <ele>321.69836425781</ele>
        <time>2013-07-24T14:25:59Z</time>
      </trkpt>
      <trkpt lat="45.59899" lon="4.70076">
        <ele>322.17895507812</ele>
        <time>2013-07-24T14:26:07Z</time>
      </trkpt>
      <trkpt lat="45.59895" lon="4.70054">
        <ele>323.14038085938</ele>
        <time>2013-07-24T14:26:14Z</time>
      </trkpt>
      <trkpt lat="45.5989" lon="4.70033">
        <ele>325.54357910156</ele>
        <time>2013-07-24T14:26:21Z</time>
      </trkpt>
      <trkpt lat="45.59883" lon="4.70011">
        <ele>328.42761230469</ele>
        <time>2013-07-24T14:26:29Z</time>
      </trkpt>
      <trkpt lat="45.59879" lon="4.6999">
        <ele>332.75354003906</ele>
        <time>2013-07-24T14:26:37Z</time>
      </trkpt>
      <trkpt lat="45.59873" lon="4.6997">
        <ele>335.15673828125</ele>
        <time>2013-07-24T14:26:43Z</time>
      </trkpt>
      <trkpt lat="45.59869" lon="4.69948">
        <ele>338.521484375</ele>
        <time>2013-07-24T14:26:48Z</time>
      </trkpt>
      <trkpt lat="45.59867" lon="4.69932">
        <ele>342.84729003906</ele>
        <time>2013-07-24T14:26:55Z</time>
      </trkpt>
      <trkpt lat="45.59868" lon="4.69919">
        <ele>347.65393066406</ele>
        <time>2013-07-24T14:27:01Z</time>
      </trkpt>
      <trkpt lat="45.59861" lon="4.69903">
        <ele>348.615234375</ele>
        <time>2013-07-24T14:27:07Z</time>
      </trkpt>
      <trkpt lat="45.59853" lon="4.69885">
        <ele>346.21203613281</ele>
        <time>2013-07-24T14:27:14Z</time>
      </trkpt>
      <trkpt lat="45.59845" lon="4.69864">
        <ele>344.28942871094</ele>
        <time>2013-07-24T14:27:23Z</time>
      </trkpt>
      <trkpt lat="45.59843" lon="4.6986">
        <ele>343.80859375</ele>
        <time>2013-07-24T14:27:25Z</time>
      </trkpt>
      <trkpt lat="45.59844" lon="4.69858">
        <ele>343.80859375</ele>
        <time>2013-07-24T14:27:30Z</time>
      </trkpt>
      <trkpt lat="45.59844" lon="4.69858">
        <ele>342.84729003906</ele>
        <time>2013-07-24T14:27:41Z</time>
      </trkpt>
      <trkpt lat="45.59844" lon="4.69858">
        <ele>339.96337890625</ele>
        <time>2013-07-24T14:27:52Z</time>
      </trkpt>
      <trkpt lat="45.59843" lon="4.69858">
        <ele>337.56005859375</ele>
        <time>2013-07-24T14:28:01Z</time>
      </trkpt>
      <trkpt lat="45.59843" lon="4.69859">
        <ele>337.07946777344</ele>
        <time>2013-07-24T14:28:09Z</time>
      </trkpt>
      <trkpt lat="45.59844" lon="4.6986">
        <ele>339.96337890625</ele>
        <time>2013-07-24T14:28:37Z</time>
      </trkpt>
      <trkpt lat="45.59845" lon="4.69858">
        <ele>344.28942871094</ele>
        <time>2013-07-24T14:28:45Z</time>
      </trkpt>
      <trkpt lat="45.59844" lon="4.69859">
        <ele>344.28942871094</ele>
        <time>2013-07-24T14:29:58Z</time>
      </trkpt>
      <trkpt lat="45.59844" lon="4.69859">
        <ele>342.36669921875</ele>
        <time>2013-07-24T14:30:17Z</time>
      </trkpt>
      <trkpt lat="45.59844" lon="4.69859">
        <ele>340.92468261719</ele>
        <time>2013-07-24T14:30:45Z</time>
      </trkpt>
      <trkpt lat="45.59844" lon="4.6986">
        <ele>340.44409179688</ele>
        <time>2013-07-24T14:30:55Z</time>
      </trkpt>
      <trkpt lat="45.59842" lon="4.69861">
        <ele>339.00207519531</ele>
        <time>2013-07-24T14:31:32Z</time>
      </trkpt>
      <trkpt lat="45.59842" lon="4.6986">
        <ele>336.1181640625</ele>
        <time>2013-07-24T14:31:41Z</time>
      </trkpt>
      <trkpt lat="45.59845" lon="4.69858">
        <ele>335.63732910156</ele>
        <time>2013-07-24T14:31:51Z</time>
      </trkpt>
      <trkpt lat="45.59846" lon="4.69857">
        <ele>337.07946777344</ele>
        <time>2013-07-24T14:31:56Z</time>
      </trkpt>
      <trkpt lat="45.5985" lon="4.69856">
        <ele>337.07946777344</ele>
        <time>2013-07-24T14:32:00Z</time>
      </trkpt>
      <trkpt lat="45.59851" lon="4.69856">
        <ele>337.07946777344</ele>
        <time>2013-07-24T14:32:01Z</time>
      </trkpt>
      <trkpt lat="45.59866" lon="4.69858">
        <ele>336.1181640625</ele>
        <time>2013-07-24T14:32:07Z</time>
      </trkpt>
      <trkpt lat="45.59891" lon="4.69857">
        <ele>335.15673828125</ele>
        <time>2013-07-24T14:32:13Z</time>
      </trkpt>
      <trkpt lat="45.59905" lon="4.69854">
        <ele>333.71472167969</ele>
        <time>2013-07-24T14:32:16Z</time>
      </trkpt>
      <trkpt lat="45.59931" lon="4.69844">
        <ele>328.90832519531</ele>
        <time>2013-07-24T14:32:21Z</time>
      </trkpt>
      <trkpt lat="45.59946" lon="4.69836">
        <ele>326.5048828125</ele>
        <time>2013-07-24T14:32:24Z</time>
      </trkpt>
      <trkpt lat="45.59962" lon="4.6983">
        <ele>324.1015625</ele>
        <time>2013-07-24T14:32:28Z</time>
      </trkpt>
      <trkpt lat="45.59978" lon="4.69828">
        <ele>322.17895507812</ele>
        <time>2013-07-24T14:32:32Z</time>
      </trkpt>
      <trkpt lat="45.59997" lon="4.69824">
        <ele>319.77563476562</ele>
        <time>2013-07-24T14:32:36Z</time>
      </trkpt>
      <trkpt lat="45.60007" lon="4.69818">
        <ele>319.29504394531</ele>
        <time>2013-07-24T14:32:38Z</time>
      </trkpt>
      <trkpt lat="45.60021" lon="4.69814">
        <ele>317.85302734375</ele>
        <time>2013-07-24T14:32:41Z</time>
      </trkpt>
      <trkpt lat="45.60032" lon="4.69817">
        <ele>315.93041992188</ele>
        <time>2013-07-24T14:32:45Z</time>
      </trkpt>
      <trkpt lat="45.60043" lon="4.6981">
        <ele>314.96911621094</ele>
        <time>2013-07-24T14:32:48Z</time>
      </trkpt>
      <trkpt lat="45.60048" lon="4.6981">
        <ele>314.96911621094</ele>
        <time>2013-07-24T14:32:49Z</time>
      </trkpt>
      <trkpt lat="45.60077" lon="4.69812">
        <ele>313.04650878906</ele>
        <time>2013-07-24T14:32:55Z</time>
      </trkpt>
      <trkpt lat="45.60123" lon="4.69816">
        <ele>310.64306640625</ele>
        <time>2013-07-24T14:33:03Z</time>
      </trkpt>
      <trkpt lat="45.60134" lon="4.6982">
        <ele>310.16247558594</ele>
        <time>2013-07-24T14:33:08Z</time>
      </trkpt>
      <trkpt lat="45.60145" lon="4.69819">
        <ele>309.68188476562</ele>
        <time>2013-07-24T14:33:12Z</time>
      </trkpt>
      <trkpt lat="45.60144" lon="4.69819">
        <ele>309.68188476562</ele>
        <time>2013-07-24T14:33:22Z</time>
      </trkpt>
      <trkpt lat="45.60144" lon="4.6982">
        <ele>310.16247558594</ele>
        <time>2013-07-24T14:33:32Z</time>
      </trkpt>
      <trkpt lat="45.60149" lon="4.69825">
        <ele>311.6044921875</ele>
        <time>2013-07-24T14:33:53Z</time>
      </trkpt>
      <trkpt lat="45.60165" lon="4.69833">
        <ele>311.12377929688</ele>
        <time>2013-07-24T14:33:58Z</time>
      </trkpt>
      <trkpt lat="45.60189" lon="4.69848">
        <ele>310.16247558594</ele>
        <time>2013-07-24T14:34:04Z</time>
      </trkpt>
      <trkpt lat="45.6022" lon="4.69868">
        <ele>309.201171875</ele>
        <time>2013-07-24T14:34:11Z</time>
      </trkpt>
      <trkpt lat="45.60249" lon="4.69887">
        <ele>308.23986816406</ele>
        <time>2013-07-24T14:34:16Z</time>
      </trkpt>
      <trkpt lat="45.6026" lon="4.69894">
        <ele>306.7978515625</ele>
        <time>2013-07-24T14:34:18Z</time>
      </trkpt>
      <trkpt lat="45.60283" lon="4.69909">
        <ele>304.87524414062</ele>
        <time>2013-07-24T14:34:22Z</time>
      </trkpt>
      <trkpt lat="45.603" lon="4.69926">
        <ele>303.43322753906</ele>
        <time>2013-07-24T14:34:26Z</time>
      </trkpt>
      <trkpt lat="45.60331" lon="4.69954">
        <ele>300.54931640625</ele>
        <time>2013-07-24T14:34:32Z</time>
      </trkpt>
      <trkpt lat="45.60355" lon="4.69972">
        <ele>297.18469238281</ele>
        <time>2013-07-24T14:34:37Z</time>
      </trkpt>
      <trkpt lat="45.60379" lon="4.69991">
        <ele>295.74267578125</ele>
        <time>2013-07-24T14:34:43Z</time>
      </trkpt>
      <trkpt lat="45.60385" lon="4.69997">
        <ele>294.78137207031</ele>
        <time>2013-07-24T14:34:45Z</time>
      </trkpt>
      <trkpt lat="45.60404" lon="4.70008">
        <ele>294.30078125</ele>
        <time>2013-07-24T14:34:50Z</time>
      </trkpt>
      <trkpt lat="45.60417" lon="4.70012">
        <ele>293.82006835938</ele>
        <time>2013-07-24T14:34:52Z</time>
      </trkpt>
      <trkpt lat="45.60465" lon="4.70026">
        <ele>291.8974609375</ele>
        <time>2013-07-24T14:34:59Z</time>
      </trkpt>
      <trkpt lat="45.60478" lon="4.7003">
        <ele>290.45556640625</ele>
        <time>2013-07-24T14:35:01Z</time>
      </trkpt>
      <trkpt lat="45.60494" lon="4.70036">
        <ele>289.01354980469</ele>
        <time>2013-07-24T14:35:04Z</time>
      </trkpt>
      <trkpt lat="45.60502" lon="4.70037">
        <ele>288.05224609375</ele>
        <time>2013-07-24T14:35:06Z</time>
      </trkpt>
      <trkpt lat="45.6051" lon="4.70037">
        <ele>287.57141113281</ele>
        <time>2013-07-24T14:35:08Z</time>
      </trkpt>
      <trkpt lat="45.6052" lon="4.70029">
        <ele>284.68762207031</ele>
        <time>2013-07-24T14:35:12Z</time>
      </trkpt>
      <trkpt lat="45.60527" lon="4.70015">
        <ele>281.80358886719</ele>
        <time>2013-07-24T14:35:18Z</time>
      </trkpt>
      <trkpt lat="45.6053" lon="4.70008">
        <ele>284.68762207031</ele>
        <time>2013-07-24T14:35:22Z</time>
      </trkpt>
      <trkpt lat="45.60533" lon="4.70001">
        <ele>288.05224609375</ele>
        <time>2013-07-24T14:35:31Z</time>
      </trkpt>
      <trkpt lat="45.60537" lon="4.70001">
        <ele>289.97485351562</ele>
        <time>2013-07-24T14:35:45Z</time>
      </trkpt>
      <trkpt lat="45.60545" lon="4.69994">
        <ele>289.494140625</ele>
        <time>2013-07-24T14:35:51Z</time>
      </trkpt>
      <trkpt lat="45.60557" lon="4.69985">
        <ele>291.8974609375</ele>
        <time>2013-07-24T14:35:57Z</time>
      </trkpt>
      <trkpt lat="45.60569" lon="4.69975">
        <ele>290.93615722656</ele>
        <time>2013-07-24T14:36:03Z</time>
      </trkpt>
      <trkpt lat="45.60576" lon="4.69964">
        <ele>290.93615722656</ele>
        <time>2013-07-24T14:36:07Z</time>
      </trkpt>
      <trkpt lat="45.60593" lon="4.69953">
        <ele>291.8974609375</ele>
        <time>2013-07-24T14:36:16Z</time>
      </trkpt>
      <trkpt lat="45.60608" lon="4.69948">
        <ele>294.78137207031</ele>
        <time>2013-07-24T14:36:24Z</time>
      </trkpt>
      <trkpt lat="45.60621" lon="4.69946">
        <ele>295.74267578125</ele>
        <time>2013-07-24T14:36:31Z</time>
      </trkpt>
      <trkpt lat="45.60633" lon="4.69947">
        <ele>299.10729980469</ele>
        <time>2013-07-24T14:36:38Z</time>
      </trkpt>
      <trkpt lat="45.60646" lon="4.69949">
        <ele>301.02990722656</ele>
        <time>2013-07-24T14:36:45Z</time>
      </trkpt>
      <trkpt lat="45.60653" lon="4.6995">
        <ele>303.43322753906</ele>
        <time>2013-07-24T14:36:49Z</time>
      </trkpt>
      <trkpt lat="45.60658" lon="4.69945">
        <ele>304.39465332031</ele>
        <time>2013-07-24T14:36:54Z</time>
      </trkpt>
      <trkpt lat="45.60667" lon="4.6993">
        <ele>303.91394042969</ele>
        <time>2013-07-24T14:37:02Z</time>
      </trkpt>
      <trkpt lat="45.60675" lon="4.69914">
        <ele>304.39465332031</ele>
        <time>2013-07-24T14:37:11Z</time>
      </trkpt>
      <trkpt lat="45.60677" lon="4.6991">
        <ele>302.95251464844</ele>
        <time>2013-07-24T14:37:15Z</time>
      </trkpt>
      <trkpt lat="45.60678" lon="4.69914">
        <ele>304.87524414062</ele>
        <time>2013-07-24T14:37:20Z</time>
      </trkpt>
      <trkpt lat="45.60682" lon="4.69914">
        <ele>303.91394042969</ele>
        <time>2013-07-24T14:37:25Z</time>
      </trkpt>
      <trkpt lat="45.60689" lon="4.69918">
        <ele>305.83666992188</ele>
        <time>2013-07-24T14:37:33Z</time>
      </trkpt>
      <trkpt lat="45.60696" lon="4.6992">
        <ele>304.87524414062</ele>
        <time>2013-07-24T14:37:40Z</time>
      </trkpt>
      <trkpt lat="45.60703" lon="4.69929">
        <ele>302.95251464844</ele>
        <time>2013-07-24T14:37:48Z</time>
      </trkpt>
      <trkpt lat="45.60705" lon="4.6993">
        <ele>304.87524414062</ele>
        <time>2013-07-24T14:37:50Z</time>
      </trkpt>
      <trkpt lat="45.60711" lon="4.69932">
        <ele>304.39465332031</ele>
        <time>2013-07-24T14:37:56Z</time>
      </trkpt>
      <trkpt lat="45.60714" lon="4.69937">
        <ele>303.91394042969</ele>
        <time>2013-07-24T14:38:00Z</time>
      </trkpt>
      <trkpt lat="45.60725" lon="4.69946">
        <ele>302.95251464844</ele>
        <time>2013-07-24T14:38:07Z</time>
      </trkpt>
      <trkpt lat="45.60737" lon="4.69949">
        <ele>303.91394042969</ele>
        <time>2013-07-24T14:38:14Z</time>
      </trkpt>
      <trkpt lat="45.60746" lon="4.69949">
        <ele>303.43322753906</ele>
        <time>2013-07-24T14:38:20Z</time>
      </trkpt>
      <trkpt lat="45.60751" lon="4.69956">
        <ele>303.43322753906</ele>
        <time>2013-07-24T14:38:25Z</time>
      </trkpt>
      <trkpt lat="45.60751" lon="4.6997">
        <ele>302.95251464844</ele>
        <time>2013-07-24T14:38:29Z</time>
      </trkpt>
      <trkpt lat="45.60747" lon="4.70004">
        <ele>300.06872558594</ele>
        <time>2013-07-24T14:38:36Z</time>
      </trkpt>
      <trkpt lat="45.60739" lon="4.7004">
        <ele>295.74267578125</ele>
        <time>2013-07-24T14:38:41Z</time>
      </trkpt>
      <trkpt lat="45.6072" lon="4.70103">
        <ele>292.37817382812</ele>
        <time>2013-07-24T14:38:49Z</time>
      </trkpt>
      <trkpt lat="45.60696" lon="4.7019">
        <ele>289.494140625</ele>
        <time>2013-07-24T14:39:00Z</time>
      </trkpt>
      <trkpt lat="45.60678" lon="4.70254">
        <ele>287.57141113281</ele>
        <time>2013-07-24T14:39:08Z</time>
      </trkpt>
      <trkpt lat="45.6066" lon="4.70331">
        <ele>285.64880371094</ele>
        <time>2013-07-24T14:39:17Z</time>
      </trkpt>
      <trkpt lat="45.60647" lon="4.70406">
        <ele>281.32299804688</ele>
        <time>2013-07-24T14:39:25Z</time>
      </trkpt>
      <trkpt lat="45.60638" lon="4.70464">
        <ele>279.40026855469</ele>
        <time>2013-07-24T14:39:31Z</time>
      </trkpt>
      <trkpt lat="45.6063" lon="4.70521">
        <ele>278.43896484375</ele>
        <time>2013-07-24T14:39:37Z</time>
      </trkpt>
      <trkpt lat="45.60625" lon="4.7057">
        <ele>281.32299804688</ele>
        <time>2013-07-24T14:39:43Z</time>
      </trkpt>
      <trkpt lat="45.60622" lon="4.70589">
        <ele>283.24560546875</ele>
        <time>2013-07-24T14:39:45Z</time>
      </trkpt>
      <trkpt lat="45.6062" lon="4.70629">
        <ele>284.68762207031</ele>
        <time>2013-07-24T14:39:50Z</time>
      </trkpt>
      <trkpt lat="45.60618" lon="4.70658">
        <ele>286.12951660156</ele>
        <time>2013-07-24T14:39:54Z</time>
      </trkpt>
      <trkpt lat="45.60627" lon="4.70685">
        <ele>285.64880371094</ele>
        <time>2013-07-24T14:39:58Z</time>
      </trkpt>
      <trkpt lat="45.60633" lon="4.70695">
        <ele>285.16821289062</ele>
        <time>2013-07-24T14:40:00Z</time>
      </trkpt>
      <trkpt lat="45.60659" lon="4.70727">
        <ele>284.20690917969</ele>
        <time>2013-07-24T14:40:07Z</time>
      </trkpt>
      <trkpt lat="45.60687" lon="4.70769">
        <ele>286.61022949219</ele>
        <time>2013-07-24T14:40:16Z</time>
      </trkpt>
      <trkpt lat="45.60694" lon="4.70782">
        <ele>287.57141113281</ele>
        <time>2013-07-24T14:40:19Z</time>
      </trkpt>
      <trkpt lat="45.60696" lon="4.70803">
        <ele>289.97485351562</ele>
        <time>2013-07-24T14:40:24Z</time>
      </trkpt>
      <trkpt lat="45.60692" lon="4.7081">
        <ele>289.97485351562</ele>
        <time>2013-07-24T14:40:26Z</time>
      </trkpt>
      <trkpt lat="45.60674" lon="4.70837">
        <ele>290.45556640625</ele>
        <time>2013-07-24T14:40:34Z</time>
      </trkpt>
      <trkpt lat="45.60662" lon="4.70862">
        <ele>289.01354980469</ele>
        <time>2013-07-24T14:40:40Z</time>
      </trkpt>
      <trkpt lat="45.60656" lon="4.70895">
        <ele>289.01354980469</ele>
        <time>2013-07-24T14:40:47Z</time>
      </trkpt>
      <trkpt lat="45.60654" lon="4.70903">
        <ele>288.53295898438</ele>
        <time>2013-07-24T14:40:49Z</time>
      </trkpt>
      <trkpt lat="45.60643" lon="4.70907">
        <ele>289.01354980469</ele>
        <time>2013-07-24T14:40:54Z</time>
      </trkpt>
      <trkpt lat="45.60641" lon="4.70906">
        <ele>289.494140625</ele>
        <time>2013-07-24T14:40:55Z</time>
      </trkpt>
      <trkpt lat="45.60625" lon="4.70901">
        <ele>293.33935546875</ele>
        <time>2013-07-24T14:41:02Z</time>
      </trkpt>
      <trkpt lat="45.60604" lon="4.709">
        <ele>292.85876464844</ele>
        <time>2013-07-24T14:41:08Z</time>
      </trkpt>
      <trkpt lat="45.60585" lon="4.70894">
        <ele>290.45556640625</ele>
        <time>2013-07-24T14:41:12Z</time>
      </trkpt>
      <trkpt lat="45.60557" lon="4.70881">
        <ele>288.53295898438</ele>
        <time>2013-07-24T14:41:17Z</time>
      </trkpt>
      <trkpt lat="45.6054" lon="4.70874">
        <ele>285.64880371094</ele>
        <time>2013-07-24T14:41:20Z</time>
      </trkpt>
      <trkpt lat="45.60526" lon="4.70866">
        <ele>282.28430175781</ele>
        <time>2013-07-24T14:41:23Z</time>
      </trkpt>
      <trkpt lat="45.60511" lon="4.70859">
        <ele>280.84240722656</ele>
        <time>2013-07-24T14:41:28Z</time>
      </trkpt>
      <trkpt lat="45.60498" lon="4.70853">
        <ele>285.16821289062</ele>
        <time>2013-07-24T14:41:35Z</time>
      </trkpt>
      <trkpt lat="45.60482" lon="4.70847">
        <ele>289.494140625</ele>
        <time>2013-07-24T14:41:43Z</time>
      </trkpt>
      <trkpt lat="45.60467" lon="4.70839">
        <ele>292.37817382812</ele>
        <time>2013-07-24T14:41:51Z</time>
      </trkpt>
      <trkpt lat="45.6045" lon="4.70829">
        <ele>296.7041015625</ele>
        <time>2013-07-24T14:41:59Z</time>
      </trkpt>
      <trkpt lat="45.60431" lon="4.70822">
        <ele>296.22351074219</ele>
        <time>2013-07-24T14:42:08Z</time>
      </trkpt>
      <trkpt lat="45.60406" lon="4.70818">
        <ele>296.7041015625</ele>
        <time>2013-07-24T14:42:17Z</time>
      </trkpt>
      <trkpt lat="45.60385" lon="4.70815">
        <ele>294.30078125</ele>
        <time>2013-07-24T14:42:24Z</time>
      </trkpt>
      <trkpt lat="45.60366" lon="4.70811">
        <ele>292.37817382812</ele>
        <time>2013-07-24T14:42:30Z</time>
      </trkpt>
      <trkpt lat="45.60341" lon="4.70808">
        <ele>291.41674804688</ele>
        <time>2013-07-24T14:42:38Z</time>
      </trkpt>
      <trkpt lat="45.60313" lon="4.70804">
        <ele>291.8974609375</ele>
        <time>2013-07-24T14:42:46Z</time>
      </trkpt>
      <trkpt lat="45.60291" lon="4.70802">
        <ele>293.82006835938</ele>
        <time>2013-07-24T14:42:53Z</time>
      </trkpt>
      <trkpt lat="45.60268" lon="4.70803">
        <ele>296.22351074219</ele>
        <time>2013-07-24T14:43:00Z</time>
      </trkpt>
      <trkpt lat="45.60252" lon="4.70806">
        <ele>297.18469238281</ele>
        <time>2013-07-24T14:43:06Z</time>
      </trkpt>
      <trkpt lat="45.60238" lon="4.70808">
        <ele>300.54931640625</ele>
        <time>2013-07-24T14:43:13Z</time>
      </trkpt>
      <trkpt lat="45.6022" lon="4.70811">
        <ele>300.06872558594</ele>
        <time>2013-07-24T14:43:21Z</time>
      </trkpt>
      <trkpt lat="45.60201" lon="4.7081">
        <ele>301.02990722656</ele>
        <time>2013-07-24T14:43:28Z</time>
      </trkpt>
      <trkpt lat="45.60185" lon="4.70813">
        <ele>300.54931640625</ele>
        <time>2013-07-24T14:43:34Z</time>
      </trkpt>
      <trkpt lat="45.60164" lon="4.70813">
        <ele>300.54931640625</ele>
        <time>2013-07-24T14:43:41Z</time>
      </trkpt>
      <trkpt lat="45.60139" lon="4.70814">
        <ele>301.02990722656</ele>
        <time>2013-07-24T14:43:49Z</time>
      </trkpt>
      <trkpt lat="45.60118" lon="4.70812">
        <ele>301.02990722656</ele>
        <time>2013-07-24T14:43:56Z</time>
      </trkpt>
      <trkpt lat="45.6009" lon="4.70805">
        <ele>301.99133300781</ele>
        <time>2013-07-24T14:44:05Z</time>
      </trkpt>
      <trkpt lat="45.60071" lon="4.70797">
        <ele>303.91394042969</ele>
        <time>2013-07-24T14:44:12Z</time>
      </trkpt>
      <trkpt lat="45.60054" lon="4.70792">
        <ele>306.31726074219</ele>
        <time>2013-07-24T14:44:18Z</time>
      </trkpt>
      <trkpt lat="45.6004" lon="4.70785">
        <ele>307.27856445312</ele>
        <time>2013-07-24T14:44:24Z</time>
      </trkpt>
      <trkpt lat="45.60022" lon="4.70779">
        <ele>307.75927734375</ele>
        <time>2013-07-24T14:44:32Z</time>
      </trkpt>
      <trkpt lat="45.60013" lon="4.70776">
        <ele>308.23986816406</ele>
        <time>2013-07-24T14:44:37Z</time>
      </trkpt>
      <trkpt lat="45.59999" lon="4.70773">
        <ele>306.31726074219</ele>
        <time>2013-07-24T14:44:44Z</time>
      </trkpt>
      <trkpt lat="45.59988" lon="4.70775">
        <ele>307.27856445312</ele>
        <time>2013-07-24T14:44:50Z</time>
      </trkpt>
      <trkpt lat="45.59979" lon="4.70778">
        <ele>307.27856445312</ele>
        <time>2013-07-24T14:44:55Z</time>
      </trkpt>
      <trkpt lat="45.59968" lon="4.70785">
        <ele>308.72045898438</ele>
        <time>2013-07-24T14:45:02Z</time>
      </trkpt>
      <trkpt lat="45.59954" lon="4.70799">
        <ele>310.16247558594</ele>
        <time>2013-07-24T14:45:10Z</time>
      </trkpt>
      <trkpt lat="45.59941" lon="4.70815">
        <ele>311.12377929688</ele>
        <time>2013-07-24T14:45:18Z</time>
      </trkpt>
      <trkpt lat="45.59927" lon="4.70835">
        <ele>310.64306640625</ele>
        <time>2013-07-24T14:45:26Z</time>
      </trkpt>
      <trkpt lat="45.59913" lon="4.70855">
        <ele>311.12377929688</ele>
        <time>2013-07-24T14:45:34Z</time>
      </trkpt>
      <trkpt lat="45.59909" lon="4.70863">
        <ele>311.12377929688</ele>
        <time>2013-07-24T14:45:37Z</time>
      </trkpt>
      <trkpt lat="45.59901" lon="4.70866">
        <ele>313.04650878906</ele>
        <time>2013-07-24T14:45:43Z</time>
      </trkpt>
      <trkpt lat="45.59897" lon="4.70864">
        <ele>314.48840332031</ele>
        <time>2013-07-24T14:45:49Z</time>
      </trkpt>
      <trkpt lat="45.59898" lon="4.70865">
        <ele>314.48840332031</ele>
        <time>2013-07-24T14:45:54Z</time>
      </trkpt>
      <trkpt lat="45.59898" lon="4.70865">
        <ele>314.0078125</ele>
        <time>2013-07-24T14:45:58Z</time>
      </trkpt>
      <trkpt lat="45.59899" lon="4.70865">
        <ele>314.0078125</ele>
        <time>2013-07-24T14:46:08Z</time>
      </trkpt>
      <trkpt lat="45.59899" lon="4.70865">
        <ele>313.52722167969</ele>
        <time>2013-07-24T14:46:18Z</time>
      </trkpt>
      <trkpt lat="45.59902" lon="4.70866">
        <ele>313.52722167969</ele>
        <time>2013-07-24T14:46:22Z</time>
      </trkpt>
      <trkpt lat="45.5991" lon="4.70866">
        <ele>313.04650878906</ele>
        <time>2013-07-24T14:46:30Z</time>
      </trkpt>
      <trkpt lat="45.59911" lon="4.70866">
        <ele>313.04650878906</ele>
        <time>2013-07-24T14:46:35Z</time>
      </trkpt>
      <trkpt lat="45.59911" lon="4.70865">
        <ele>314.0078125</ele>
        <time>2013-07-24T14:46:44Z</time>
      </trkpt>
      <trkpt lat="45.5991" lon="4.70867">
        <ele>314.48840332031</ele>
        <time>2013-07-24T14:46:51Z</time>
      </trkpt>
      <trkpt lat="45.59911" lon="4.70865">
        <ele>314.0078125</ele>
        <time>2013-07-24T14:47:23Z</time>
      </trkpt>
      <trkpt lat="45.5991" lon="4.70864">
        <ele>314.0078125</ele>
        <time>2013-07-24T14:47:28Z</time>
      </trkpt>
      <trkpt lat="45.59911" lon="4.70864">
        <ele>314.0078125</ele>
        <time>2013-07-24T14:47:35Z</time>
      </trkpt>
      <trkpt lat="45.59911" lon="4.70864">
        <ele>314.0078125</ele>
        <time>2013-07-24T14:47:41Z</time>
      </trkpt>
      <trkpt lat="45.5991" lon="4.70867">
        <ele>313.04650878906</ele>
        <time>2013-07-24T14:47:48Z</time>
      </trkpt>
      <trkpt lat="45.59911" lon="4.70866">
        <ele>313.52722167969</ele>
        <time>2013-07-24T14:47:54Z</time>
      </trkpt>
      <trkpt lat="45.59911" lon="4.70866">
        <ele>314.48840332031</ele>
        <time>2013-07-24T14:48:01Z</time>
      </trkpt>
      <trkpt lat="45.59912" lon="4.70867">
        <ele>316.89172363281</ele>
        <time>2013-07-24T14:48:26Z</time>
      </trkpt>
      <trkpt lat="45.59917" lon="4.70868">
        <ele>315.44982910156</ele>
        <time>2013-07-24T14:48:30Z</time>
      </trkpt>
      <trkpt lat="45.59934" lon="4.70865">
        <ele>314.0078125</ele>
        <time>2013-07-24T14:48:35Z</time>
      </trkpt>
      <trkpt lat="45.59953" lon="4.70864">
        <ele>312.08520507812</ele>
        <time>2013-07-24T14:48:40Z</time>
      </trkpt>
      <trkpt lat="45.59969" lon="4.70866">
        <ele>310.16247558594</ele>
        <time>2013-07-24T14:48:45Z</time>
      </trkpt>
      <trkpt lat="45.59986" lon="4.70873">
        <ele>307.27856445312</ele>
        <time>2013-07-24T14:48:51Z</time>
      </trkpt>
      <trkpt lat="45.60003" lon="4.70877">
        <ele>304.39465332031</ele>
        <time>2013-07-24T14:48:56Z</time>
      </trkpt>
      <trkpt lat="45.60022" lon="4.7088">
        <ele>301.51062011719</ele>
        <time>2013-07-24T14:49:01Z</time>
      </trkpt>
      <trkpt lat="45.60036" lon="4.7089">
        <ele>298.14611816406</ele>
        <time>2013-07-24T14:49:06Z</time>
      </trkpt>
      <trkpt lat="45.60054" lon="4.70905">
        <ele>295.74267578125</ele>
        <time>2013-07-24T14:49:13Z</time>
      </trkpt>
      <trkpt lat="45.60072" lon="4.70924">
        <ele>294.78137207031</ele>
        <time>2013-07-24T14:49:20Z</time>
      </trkpt>
      <trkpt lat="45.60089" lon="4.70943">
        <ele>293.82006835938</ele>
        <time>2013-07-24T14:49:26Z</time>
      </trkpt>
      <trkpt lat="45.60107" lon="4.70966">
        <ele>292.85876464844</ele>
        <time>2013-07-24T14:49:32Z</time>
      </trkpt>
      <trkpt lat="45.60126" lon="4.70986">
        <ele>291.8974609375</ele>
        <time>2013-07-24T14:49:39Z</time>
      </trkpt>
      <trkpt lat="45.60141" lon="4.71007">
        <ele>291.41674804688</ele>
        <time>2013-07-24T14:49:46Z</time>
      </trkpt>
      <trkpt lat="45.60151" lon="4.71028">
        <ele>289.97485351562</ele>
        <time>2013-07-24T14:49:52Z</time>
      </trkpt>
      <trkpt lat="45.60163" lon="4.71046">
        <ele>288.05224609375</ele>
        <time>2013-07-24T14:49:58Z</time>
      </trkpt>
      <trkpt lat="45.60173" lon="4.71061">
        <ele>287.0908203125</ele>
        <time>2013-07-24T14:50:04Z</time>
      </trkpt>
      <trkpt lat="45.60187" lon="4.71089">
        <ele>287.0908203125</ele>
        <time>2013-07-24T14:50:11Z</time>
      </trkpt>
      <trkpt lat="45.60199" lon="4.71119">
        <ele>286.61022949219</ele>
        <time>2013-07-24T14:50:18Z</time>
      </trkpt>
      <trkpt lat="45.60209" lon="4.71149">
        <ele>285.64880371094</ele>
        <time>2013-07-24T14:50:23Z</time>
      </trkpt>
      <trkpt lat="45.60219" lon="4.71178">
        <ele>284.68762207031</ele>
        <time>2013-07-24T14:50:28Z</time>
      </trkpt>
      <trkpt lat="45.60221" lon="4.7119">
        <ele>284.20690917969</ele>
        <time>2013-07-24T14:50:30Z</time>
      </trkpt>
      <trkpt lat="45.60231" lon="4.71231">
        <ele>281.80358886719</ele>
        <time>2013-07-24T14:50:36Z</time>
      </trkpt>
      <trkpt lat="45.6025" lon="4.71291">
        <ele>278.91967773438</ele>
        <time>2013-07-24T14:50:44Z</time>
      </trkpt>
      <trkpt lat="45.60263" lon="4.71328">
        <ele>277.47766113281</ele>
        <time>2013-07-24T14:50:49Z</time>
      </trkpt>
      <trkpt lat="45.6027" lon="4.71348">
        <ele>276.9970703125</ele>
        <time>2013-07-24T14:50:52Z</time>
      </trkpt>
      <trkpt lat="45.60268" lon="4.71361">
        <ele>277.47766113281</ele>
        <time>2013-07-24T14:50:56Z</time>
      </trkpt>
      <trkpt lat="45.60265" lon="4.71359">
        <ele>278.43896484375</ele>
        <time>2013-07-24T14:50:59Z</time>
      </trkpt>
      <trkpt lat="45.60261" lon="4.71358">
        <ele>279.40026855469</ele>
        <time>2013-07-24T14:51:03Z</time>
      </trkpt>
      <trkpt lat="45.6026" lon="4.71365">
        <ele>279.40026855469</ele>
        <time>2013-07-24T14:51:08Z</time>
      </trkpt>
      <trkpt lat="45.60269" lon="4.71368">
        <ele>279.880859375</ele>
        <time>2013-07-24T14:51:13Z</time>
      </trkpt>
      <trkpt lat="45.6027" lon="4.71361">
        <ele>279.880859375</ele>
        <time>2013-07-24T14:51:16Z</time>
      </trkpt>
      <trkpt lat="45.60264" lon="4.7136">
        <ele>279.40026855469</ele>
        <time>2013-07-24T14:51:20Z</time>
      </trkpt>
      <trkpt lat="45.60263" lon="4.71364">
        <ele>279.40026855469</ele>
        <time>2013-07-24T14:51:23Z</time>
      </trkpt>
      <trkpt lat="45.60271" lon="4.71372">
        <ele>278.91967773438</ele>
        <time>2013-07-24T14:51:27Z</time>
      </trkpt>
      <trkpt lat="45.60277" lon="4.71388">
        <ele>279.880859375</ele>
        <time>2013-07-24T14:51:32Z</time>
      </trkpt>
      <trkpt lat="45.60279" lon="4.71394">
        <ele>279.880859375</ele>
        <time>2013-07-24T14:51:35Z</time>
      </trkpt>
      <trkpt lat="45.60281" lon="4.71389">
        <ele>278.91967773438</ele>
        <time>2013-07-24T14:51:39Z</time>
      </trkpt>
      <trkpt lat="45.60268" lon="4.71363">
        <ele>277.95825195312</ele>
        <time>2013-07-24T14:51:48Z</time>
      </trkpt>
      <trkpt lat="45.60263" lon="4.71358">
        <ele>277.95825195312</ele>
        <time>2013-07-24T14:51:53Z</time>
      </trkpt>
      <trkpt lat="45.60264" lon="4.71358">
        <ele>278.91967773438</ele>
        <time>2013-07-24T14:52:02Z</time>
      </trkpt>
      <trkpt lat="45.60264" lon="4.71358">
        <ele>280.36169433594</ele>
        <time>2013-07-24T14:52:08Z</time>
      </trkpt>
      <trkpt lat="45.60264" lon="4.71358">
        <ele>279.880859375</ele>
        <time>2013-07-24T14:52:16Z</time>
      </trkpt>
      <trkpt lat="45.60265" lon="4.71358">
        <ele>279.880859375</ele>
        <time>2013-07-24T14:52:30Z</time>
      </trkpt>
      <trkpt lat="45.60265" lon="4.71357">
        <ele>279.880859375</ele>
        <time>2013-07-24T14:52:37Z</time>
      </trkpt>
      <trkpt lat="45.60265" lon="4.71358">
        <ele>280.84240722656</ele>
        <time>2013-07-24T14:52:51Z</time>
      </trkpt>
      <trkpt lat="45.60265" lon="4.71358">
        <ele>278.91967773438</ele>
        <time>2013-07-24T14:53:08Z</time>
      </trkpt>
      <trkpt lat="45.60265" lon="4.71359">
        <ele>278.91967773438</ele>
        <time>2013-07-24T14:53:22Z</time>
      </trkpt>
      <trkpt lat="45.60264" lon="4.71359">
        <ele>278.43896484375</ele>
        <time>2013-07-24T14:53:33Z</time>
      </trkpt>
      <trkpt lat="45.60258" lon="4.71357">
        <ele>278.43896484375</ele>
        <time>2013-07-24T14:53:38Z</time>
      </trkpt>
      <trkpt lat="45.60243" lon="4.71353">
        <ele>279.40026855469</ele>
        <time>2013-07-24T14:53:45Z</time>
      </trkpt>
      <trkpt lat="45.60225" lon="4.71355">
        <ele>280.84240722656</ele>
        <time>2013-07-24T14:53:52Z</time>
      </trkpt>
      <trkpt lat="45.60204" lon="4.7136">
        <ele>282.28430175781</ele>
        <time>2013-07-24T14:54:00Z</time>
      </trkpt>
      <trkpt lat="45.60181" lon="4.71368">
        <ele>283.72619628906</ele>
        <time>2013-07-24T14:54:09Z</time>
      </trkpt>
      <trkpt lat="45.60159" lon="4.71378">
        <ele>285.16821289062</ele>
        <time>2013-07-24T14:54:17Z</time>
      </trkpt>
      <trkpt lat="45.60137" lon="4.7139">
        <ele>285.64880371094</ele>
        <time>2013-07-24T14:54:26Z</time>
      </trkpt>
      <trkpt lat="45.60112" lon="4.71403">
        <ele>286.12951660156</ele>
        <time>2013-07-24T14:54:37Z</time>
      </trkpt>
      <trkpt lat="45.60097" lon="4.71409">
        <ele>286.61022949219</ele>
        <time>2013-07-24T14:54:45Z</time>
      </trkpt>
      <trkpt lat="45.60084" lon="4.71411">
        <ele>288.05224609375</ele>
        <time>2013-07-24T14:54:52Z</time>
      </trkpt>
      <trkpt lat="45.60075" lon="4.71411">
        <ele>288.53295898438</ele>
        <time>2013-07-24T14:54:57Z</time>
      </trkpt>
      <trkpt lat="45.60062" lon="4.71406">
        <ele>289.494140625</ele>
        <time>2013-07-24T14:55:05Z</time>
      </trkpt>
      <trkpt lat="45.60043" lon="4.71404">
        <ele>290.93615722656</ele>
        <time>2013-07-24T14:55:16Z</time>
      </trkpt>
      <trkpt lat="45.60029" lon="4.71405">
        <ele>291.8974609375</ele>
        <time>2013-07-24T14:55:24Z</time>
      </trkpt>
      <trkpt lat="45.60017" lon="4.71417">
        <ele>292.37817382812</ele>
        <time>2013-07-24T14:55:31Z</time>
      </trkpt>
      <trkpt lat="45.60006" lon="4.71434">
        <ele>292.37817382812</ele>
        <time>2013-07-24T14:55:38Z</time>
      </trkpt>
      <trkpt lat="45.59989" lon="4.71462">
        <ele>290.45556640625</ele>
        <time>2013-07-24T14:55:48Z</time>
      </trkpt>
      <trkpt lat="45.59975" lon="4.71488">
        <ele>289.494140625</ele>
        <time>2013-07-24T14:55:56Z</time>
      </trkpt>
      <trkpt lat="45.59967" lon="4.71514">
        <ele>290.45556640625</ele>
        <time>2013-07-24T14:56:03Z</time>
      </trkpt>
      <trkpt lat="45.59961" lon="4.71542">
        <ele>293.82006835938</ele>
        <time>2013-07-24T14:56:11Z</time>
      </trkpt>
      <trkpt lat="45.59956" lon="4.71563">
        <ele>294.78137207031</ele>
        <time>2013-07-24T14:56:16Z</time>
      </trkpt>
      <trkpt lat="45.59949" lon="4.71591">
        <ele>292.37817382812</ele>
        <time>2013-07-24T14:56:22Z</time>
      </trkpt>
      <trkpt lat="45.5994" lon="4.71625">
        <ele>290.93615722656</ele>
        <time>2013-07-24T14:56:29Z</time>
      </trkpt>
      <trkpt lat="45.59933" lon="4.71664">
        <ele>290.45556640625</ele>
        <time>2013-07-24T14:56:37Z</time>
      </trkpt>
      <trkpt lat="45.5993" lon="4.71695">
        <ele>291.8974609375</ele>
        <time>2013-07-24T14:56:43Z</time>
      </trkpt>
      <trkpt lat="45.59922" lon="4.71725">
        <ele>292.37817382812</ele>
        <time>2013-07-24T14:56:49Z</time>
      </trkpt>
      <trkpt lat="45.59913" lon="4.71744">
        <ele>293.33935546875</ele>
        <time>2013-07-24T14:56:53Z</time>
      </trkpt>
      <trkpt lat="45.59908" lon="4.7177">
        <ele>292.85876464844</ele>
        <time>2013-07-24T14:56:58Z</time>
      </trkpt>
      <trkpt lat="45.59908" lon="4.71776">
        <ele>292.37817382812</ele>
        <time>2013-07-24T14:56:59Z</time>
      </trkpt>
      <trkpt lat="45.59904" lon="4.71812">
        <ele>291.41674804688</ele>
        <time>2013-07-24T14:57:04Z</time>
      </trkpt>
      <trkpt lat="45.59897" lon="4.7185">
        <ele>290.93615722656</ele>
        <time>2013-07-24T14:57:09Z</time>
      </trkpt>
      <trkpt lat="45.59879" lon="4.71921">
        <ele>290.93615722656</ele>
        <time>2013-07-24T14:57:18Z</time>
      </trkpt>
      <trkpt lat="45.59859" lon="4.71983">
        <ele>291.8974609375</ele>
        <time>2013-07-24T14:57:26Z</time>
      </trkpt>
      <trkpt lat="45.59843" lon="4.72036">
        <ele>293.33935546875</ele>
        <time>2013-07-24T14:57:33Z</time>
      </trkpt>
      <trkpt lat="45.59825" lon="4.72093">
        <ele>294.78137207031</ele>
        <time>2013-07-24T14:57:41Z</time>
      </trkpt>
      <trkpt lat="45.59812" lon="4.72134">
        <ele>296.22351074219</ele>
        <time>2013-07-24T14:57:47Z</time>
      </trkpt>
      <trkpt lat="45.59798" lon="4.72179">
        <ele>296.7041015625</ele>
        <time>2013-07-24T14:57:55Z</time>
      </trkpt>
      <trkpt lat="45.59785" lon="4.72217">
        <ele>297.66540527344</ele>
        <time>2013-07-24T14:58:02Z</time>
      </trkpt>
      <trkpt lat="45.59774" lon="4.72255">
        <ele>297.66540527344</ele>
        <time>2013-07-24T14:58:09Z</time>
      </trkpt>
      <trkpt lat="45.59769" lon="4.72276">
        <ele>297.66540527344</ele>
        <time>2013-07-24T14:58:13Z</time>
      </trkpt>
      <trkpt lat="45.59761" lon="4.72301">
        <ele>297.66540527344</ele>
        <time>2013-07-24T14:58:18Z</time>
      </trkpt>
      <trkpt lat="45.59754" lon="4.72321">
        <ele>298.14611816406</ele>
        <time>2013-07-24T14:58:22Z</time>
      </trkpt>
      <trkpt lat="45.59748" lon="4.72343">
        <ele>298.14611816406</ele>
        <time>2013-07-24T14:58:27Z</time>
      </trkpt>
      <trkpt lat="45.59743" lon="4.72363">
        <ele>298.14611816406</ele>
        <time>2013-07-24T14:58:33Z</time>
      </trkpt>
      <trkpt lat="45.5974" lon="4.7237">
        <ele>298.14611816406</ele>
        <time>2013-07-24T14:58:38Z</time>
      </trkpt>
      <trkpt lat="45.5974" lon="4.7237">
        <ele>298.14611816406</ele>
        <time>2013-07-24T14:58:49Z</time>
      </trkpt>
      <trkpt lat="45.59741" lon="4.72371">
        <ele>298.62670898438</ele>
        <time>2013-07-24T14:59:10Z</time>
      </trkpt>
      <trkpt lat="45.59742" lon="4.72371">
        <ele>298.62670898438</ele>
        <time>2013-07-24T14:59:30Z</time>
      </trkpt>
      <trkpt lat="45.59741" lon="4.72374">
        <ele>298.62670898438</ele>
        <time>2013-07-24T14:59:39Z</time>
      </trkpt>
      <trkpt lat="45.59739" lon="4.72398">
        <ele>298.62670898438</ele>
        <time>2013-07-24T14:59:45Z</time>
      </trkpt>
      <trkpt lat="45.59737" lon="4.72433">
        <ele>298.14611816406</ele>
        <time>2013-07-24T14:59:53Z</time>
      </trkpt>
      <trkpt lat="45.59733" lon="4.72474">
        <ele>298.62670898438</ele>
        <time>2013-07-24T15:00:01Z</time>
      </trkpt>
      <trkpt lat="45.59724" lon="4.72501">
        <ele>298.62670898438</ele>
        <time>2013-07-24T15:00:07Z</time>
      </trkpt>
      <trkpt lat="45.5971" lon="4.72504">
        <ele>298.62670898438</ele>
        <time>2013-07-24T15:00:11Z</time>
      </trkpt>
      <trkpt lat="45.59691" lon="4.72503">
        <ele>299.10729980469</ele>
        <time>2013-07-24T15:00:16Z</time>
      </trkpt>
      <trkpt lat="45.5968" lon="4.72505">
        <ele>300.06872558594</ele>
        <time>2013-07-24T15:00:18Z</time>
      </trkpt>
      <trkpt lat="45.59663" lon="4.72498">
        <ele>299.58801269531</ele>
        <time>2013-07-24T15:00:21Z</time>
      </trkpt>
      <trkpt lat="45.59645" lon="4.72496">
        <ele>298.14611816406</ele>
        <time>2013-07-24T15:00:26Z</time>
      </trkpt>
      <trkpt lat="45.59618" lon="4.72508">
        <ele>296.22351074219</ele>
        <time>2013-07-24T15:00:32Z</time>
      </trkpt>
      <trkpt lat="45.59612" lon="4.7251">
        <ele>295.26196289062</ele>
        <time>2013-07-24T15:00:33Z</time>
      </trkpt>
      <trkpt lat="45.59571" lon="4.72508">
        <ele>292.37817382812</ele>
        <time>2013-07-24T15:00:38Z</time>
      </trkpt>
      <trkpt lat="45.59528" lon="4.72488">
        <ele>288.53295898438</ele>
        <time>2013-07-24T15:00:43Z</time>
      </trkpt>
      <trkpt lat="45.59521" lon="4.72484">
        <ele>288.05224609375</ele>
        <time>2013-07-24T15:00:44Z</time>
      </trkpt>
      <trkpt lat="45.59504" lon="4.72485">
        <ele>286.12951660156</ele>
        <time>2013-07-24T15:00:47Z</time>
      </trkpt>
      <trkpt lat="45.595" lon="4.7249">
        <ele>285.64880371094</ele>
        <time>2013-07-24T15:00:48Z</time>
      </trkpt>
      <trkpt lat="45.5948" lon="4.72521">
        <ele>286.61022949219</ele>
        <time>2013-07-24T15:00:54Z</time>
      </trkpt>
      <trkpt lat="45.59473" lon="4.72537">
        <ele>288.53295898438</ele>
        <time>2013-07-24T15:00:58Z</time>
      </trkpt>
      <trkpt lat="45.59454" lon="4.72579">
        <ele>291.41674804688</ele>
        <time>2013-07-24T15:01:09Z</time>
      </trkpt>
      <trkpt lat="45.59438" lon="4.72609">
        <ele>292.37817382812</ele>
        <time>2013-07-24T15:01:17Z</time>
      </trkpt>
      <trkpt lat="45.59431" lon="4.72617">
        <ele>292.85876464844</ele>
        <time>2013-07-24T15:01:20Z</time>
      </trkpt>
      <trkpt lat="45.59414" lon="4.72617">
        <ele>293.82006835938</ele>
        <time>2013-07-24T15:01:27Z</time>
      </trkpt>
      <trkpt lat="45.59399" lon="4.72611">
        <ele>293.82006835938</ele>
        <time>2013-07-24T15:01:33Z</time>
      </trkpt>
      <trkpt lat="45.59378" lon="4.72605">
        <ele>295.26196289062</ele>
        <time>2013-07-24T15:01:42Z</time>
      </trkpt>
      <trkpt lat="45.59364" lon="4.72603">
        <ele>296.22351074219</ele>
        <time>2013-07-24T15:01:48Z</time>
      </trkpt>
      <trkpt lat="45.59348" lon="4.72597">
        <ele>297.18469238281</ele>
        <time>2013-07-24T15:01:55Z</time>
      </trkpt>
      <trkpt lat="45.59328" lon="4.72587">
        <ele>298.62670898438</ele>
        <time>2013-07-24T15:02:04Z</time>
      </trkpt>
      <trkpt lat="45.59319" lon="4.72576">
        <ele>298.14611816406</ele>
        <time>2013-07-24T15:02:10Z</time>
      </trkpt>
      <trkpt lat="45.59306" lon="4.72556">
        <ele>299.10729980469</ele>
        <time>2013-07-24T15:02:18Z</time>
      </trkpt>
      <trkpt lat="45.59294" lon="4.72549">
        <ele>300.06872558594</ele>
        <time>2013-07-24T15:02:24Z</time>
      </trkpt>
      <trkpt lat="45.59285" lon="4.72559">
        <ele>301.51062011719</ele>
        <time>2013-07-24T15:02:29Z</time>
      </trkpt>
      <trkpt lat="45.59272" lon="4.72565">
        <ele>303.43322753906</ele>
        <time>2013-07-24T15:02:35Z</time>
      </trkpt>
      <trkpt lat="45.59252" lon="4.72557">
        <ele>305.83666992188</ele>
        <time>2013-07-24T15:02:44Z</time>
      </trkpt>
      <trkpt lat="45.59235" lon="4.72548">
        <ele>307.27856445312</ele>
        <time>2013-07-24T15:02:52Z</time>
      </trkpt>
      <trkpt lat="45.59222" lon="4.72544">
        <ele>308.23986816406</ele>
        <time>2013-07-24T15:02:57Z</time>
      </trkpt>
      <trkpt lat="45.59198" lon="4.72532">
        <ele>309.68188476562</ele>
        <time>2013-07-24T15:03:07Z</time>
      </trkpt>
      <trkpt lat="45.59182" lon="4.72524">
        <ele>311.12377929688</ele>
        <time>2013-07-24T15:03:14Z</time>
      </trkpt>
      <trkpt lat="45.59173" lon="4.72513">
        <ele>312.56579589844</ele>
        <time>2013-07-24T15:03:20Z</time>
      </trkpt>
      <trkpt lat="45.59167" lon="4.72503">
        <ele>313.04650878906</ele>
        <time>2013-07-24T15:03:27Z</time>
      </trkpt>
      <trkpt lat="45.59167" lon="4.72504">
        <ele>312.08520507812</ele>
        <time>2013-07-24T15:03:38Z</time>
      </trkpt>
      <trkpt lat="45.59167" lon="4.72504">
        <ele>313.52722167969</ele>
        <time>2013-07-24T15:03:50Z</time>
      </trkpt>
      <trkpt lat="45.59167" lon="4.72505">
        <ele>314.0078125</ele>
        <time>2013-07-24T15:04:02Z</time>
      </trkpt>
      <trkpt lat="45.59167" lon="4.72505">
        <ele>313.52722167969</ele>
        <time>2013-07-24T15:04:16Z</time>
      </trkpt>
      <trkpt lat="45.59167" lon="4.72503">
        <ele>313.04650878906</ele>
        <time>2013-07-24T15:04:31Z</time>
      </trkpt>
      <trkpt lat="45.59165" lon="4.72498">
        <ele>313.04650878906</ele>
        <time>2013-07-24T15:04:36Z</time>
      </trkpt>
      <trkpt lat="45.59161" lon="4.72486">
        <ele>313.52722167969</ele>
        <time>2013-07-24T15:04:43Z</time>
      </trkpt>
      <trkpt lat="45.59158" lon="4.72471">
        <ele>314.48840332031</ele>
        <time>2013-07-24T15:04:50Z</time>
      </trkpt>
      <trkpt lat="45.59152" lon="4.72457">
        <ele>315.44982910156</ele>
        <time>2013-07-24T15:04:58Z</time>
      </trkpt>
      <trkpt lat="45.59145" lon="4.72442">
        <ele>316.41101074219</ele>
        <time>2013-07-24T15:05:06Z</time>
      </trkpt>
      <trkpt lat="45.59134" lon="4.72423">
        <ele>318.81433105469</ele>
        <time>2013-07-24T15:05:13Z</time>
      </trkpt>
      <trkpt lat="45.59119" lon="4.72401">
        <ele>322.17895507812</ele>
        <time>2013-07-24T15:05:20Z</time>
      </trkpt>
      <trkpt lat="45.59105" lon="4.72378">
        <ele>326.02416992188</ele>
        <time>2013-07-24T15:05:28Z</time>
      </trkpt>
      <trkpt lat="45.59095" lon="4.72362">
        <ele>327.46618652344</ele>
        <time>2013-07-24T15:05:35Z</time>
      </trkpt>
      <trkpt lat="45.59086" lon="4.72353">
        <ele>327.94677734375</ele>
        <time>2013-07-24T15:05:41Z</time>
      </trkpt>
      <trkpt lat="45.59076" lon="4.72337">
        <ele>328.90832519531</ele>
        <time>2013-07-24T15:05:50Z</time>
      </trkpt>
      <trkpt lat="45.59062" lon="4.72312">
        <ele>330.35021972656</ele>
        <time>2013-07-24T15:06:02Z</time>
      </trkpt>
      <trkpt lat="45.5905" lon="4.72288">
        <ele>329.38891601562</ele>
        <time>2013-07-24T15:06:12Z</time>
      </trkpt>
      <trkpt lat="45.59039" lon="4.72271">
        <ele>328.42761230469</ele>
        <time>2013-07-24T15:06:20Z</time>
      </trkpt>
      <trkpt lat="45.59027" lon="4.72261">
        <ele>328.42761230469</ele>
        <time>2013-07-24T15:06:26Z</time>
      </trkpt>
      <trkpt lat="45.59012" lon="4.72253">
        <ele>329.38891601562</ele>
        <time>2013-07-24T15:06:33Z</time>
      </trkpt>
      <trkpt lat="45.58994" lon="4.72243">
        <ele>331.3115234375</ele>
        <time>2013-07-24T15:06:41Z</time>
      </trkpt>
      <trkpt lat="45.58974" lon="4.72233">
        <ele>331.79211425781</ele>
        <time>2013-07-24T15:06:50Z</time>
      </trkpt>
      <trkpt lat="45.58966" lon="4.72227">
        <ele>331.79211425781</ele>
        <time>2013-07-24T15:06:55Z</time>
      </trkpt>
      <trkpt lat="45.58955" lon="4.72223">
        <ele>329.86950683594</ele>
        <time>2013-07-24T15:07:02Z</time>
      </trkpt>
      <trkpt lat="45.58945" lon="4.72217">
        <ele>328.90832519531</ele>
        <time>2013-07-24T15:07:08Z</time>
      </trkpt>
      <trkpt lat="45.58932" lon="4.72212">
        <ele>328.42761230469</ele>
        <time>2013-07-24T15:07:16Z</time>
      </trkpt>
      <trkpt lat="45.58921" lon="4.72207">
        <ele>328.42761230469</ele>
        <time>2013-07-24T15:07:22Z</time>
      </trkpt>
      <trkpt lat="45.58911" lon="4.72198">
        <ele>327.94677734375</ele>
        <time>2013-07-24T15:07:27Z</time>
      </trkpt>
      <trkpt lat="45.58908" lon="4.72178">
        <ele>328.42761230469</ele>
        <time>2013-07-24T15:07:32Z</time>
      </trkpt>
      <trkpt lat="45.58906" lon="4.72161">
        <ele>328.42761230469</ele>
        <time>2013-07-24T15:07:38Z</time>
      </trkpt>
      <trkpt lat="45.58906" lon="4.72144">
        <ele>327.94677734375</ele>
        <time>2013-07-24T15:07:45Z</time>
      </trkpt>
      <trkpt lat="45.58905" lon="4.72137">
        <ele>328.42761230469</ele>
        <time>2013-07-24T15:07:48Z</time>
      </trkpt>
      <trkpt lat="45.58906" lon="4.72132">
        <ele>328.42761230469</ele>
        <time>2013-07-24T15:07:53Z</time>
      </trkpt>
      <trkpt lat="45.58909" lon="4.7213">
        <ele>329.38891601562</ele>
        <time>2013-07-24T15:08:01Z</time>
      </trkpt>
      <trkpt lat="45.58911" lon="4.72118">
        <ele>329.38891601562</ele>
        <time>2013-07-24T15:08:05Z</time>
      </trkpt>
      <trkpt lat="45.58913" lon="4.72093">
        <ele>328.90832519531</ele>
        <time>2013-07-24T15:08:11Z</time>
      </trkpt>
      <trkpt lat="45.58918" lon="4.72058">
        <ele>327.94677734375</ele>
        <time>2013-07-24T15:08:17Z</time>
      </trkpt>
      <trkpt lat="45.58927" lon="4.71996">
        <ele>325.06298828125</ele>
        <time>2013-07-24T15:08:25Z</time>
      </trkpt>
      <trkpt lat="45.58928" lon="4.71987">
        <ele>324.58227539062</ele>
        <time>2013-07-24T15:08:26Z</time>
      </trkpt>
      <trkpt lat="45.58925" lon="4.71927">
        <ele>321.69836425781</ele>
        <time>2013-07-24T15:08:32Z</time>
      </trkpt>
      <trkpt lat="45.58917" lon="4.71857">
        <ele>319.77563476562</ele>
        <time>2013-07-24T15:08:39Z</time>
      </trkpt>
      <trkpt lat="45.58916" lon="4.71848">
        <ele>319.29504394531</ele>
        <time>2013-07-24T15:08:40Z</time>
      </trkpt>
      <trkpt lat="45.5891" lon="4.71797">
        <ele>318.33361816406</ele>
        <time>2013-07-24T15:08:46Z</time>
      </trkpt>
      <trkpt lat="45.58904" lon="4.71732">
        <ele>317.85302734375</ele>
        <time>2013-07-24T15:08:54Z</time>
      </trkpt>
      <trkpt lat="45.58903" lon="4.71698">
        <ele>317.37243652344</ele>
        <time>2013-07-24T15:08:59Z</time>
      </trkpt>
      <trkpt lat="45.58906" lon="4.71649">
        <ele>316.89172363281</ele>
        <time>2013-07-24T15:09:07Z</time>
      </trkpt>
      <trkpt lat="45.5891" lon="4.71596">
        <ele>316.89172363281</ele>
        <time>2013-07-24T15:09:16Z</time>
      </trkpt>
      <trkpt lat="45.58913" lon="4.7155">
        <ele>316.89172363281</ele>
        <time>2013-07-24T15:09:24Z</time>
      </trkpt>
      <trkpt lat="45.58913" lon="4.71538">
        <ele>316.89172363281</ele>
        <time>2013-07-24T15:09:26Z</time>
      </trkpt>
      <trkpt lat="45.5891" lon="4.71485">
        <ele>317.37243652344</ele>
        <time>2013-07-24T15:09:35Z</time>
      </trkpt>
      <trkpt lat="45.58905" lon="4.71425">
        <ele>318.33361816406</ele>
        <time>2013-07-24T15:09:45Z</time>
      </trkpt>
      <trkpt lat="45.58902" lon="4.71379">
        <ele>317.85302734375</ele>
        <time>2013-07-24T15:09:53Z</time>
      </trkpt>
      <trkpt lat="45.58899" lon="4.71348">
        <ele>317.85302734375</ele>
        <time>2013-07-24T15:09:59Z</time>
      </trkpt>
      <trkpt lat="45.58895" lon="4.71306">
        <ele>316.89172363281</ele>
        <time>2013-07-24T15:10:07Z</time>
      </trkpt>
      <trkpt lat="45.58891" lon="4.71276">
        <ele>316.41101074219</ele>
        <time>2013-07-24T15:10:13Z</time>
      </trkpt>
      <trkpt lat="45.58889" lon="4.71252">
        <ele>315.93041992188</ele>
        <time>2013-07-24T15:10:18Z</time>
      </trkpt>
      <trkpt lat="45.58884" lon="4.71207">
        <ele>313.52722167969</ele>
        <time>2013-07-24T15:10:26Z</time>
      </trkpt>
      <trkpt lat="45.58881" lon="4.71172">
        <ele>313.04650878906</ele>
        <time>2013-07-24T15:10:32Z</time>
      </trkpt>
      <trkpt lat="45.58876" lon="4.71123">
        <ele>310.64306640625</ele>
        <time>2013-07-24T15:10:39Z</time>
      </trkpt>
      <trkpt lat="45.5887" lon="4.71065">
        <ele>304.39465332031</ele>
        <time>2013-07-24T15:10:47Z</time>
      </trkpt>
      <trkpt lat="45.58863" lon="4.70997">
        <ele>306.7978515625</ele>
        <time>2013-07-24T15:10:56Z</time>
      </trkpt>
      <trkpt lat="45.5886" lon="4.70931">
        <ele>309.201171875</ele>
        <time>2013-07-24T15:11:05Z</time>
      </trkpt>
      <trkpt lat="45.58861" lon="4.7087">
        <ele>309.201171875</ele>
        <time>2013-07-24T15:11:13Z</time>
      </trkpt>
      <trkpt lat="45.58867" lon="4.70813">
        <ele>308.72045898438</ele>
        <time>2013-07-24T15:11:20Z</time>
      </trkpt>
      <trkpt lat="45.58863" lon="4.70764">
        <ele>308.72045898438</ele>
        <time>2013-07-24T15:11:26Z</time>
      </trkpt>
      <trkpt lat="45.5886" lon="4.70705">
        <ele>309.68188476562</ele>
        <time>2013-07-24T15:11:33Z</time>
      </trkpt>
      <trkpt lat="45.5886" lon="4.70697">
        <ele>310.16247558594</ele>
        <time>2013-07-24T15:11:34Z</time>
      </trkpt>
      <trkpt lat="45.58863" lon="4.70645">
        <ele>310.64306640625</ele>
        <time>2013-07-24T15:11:41Z</time>
      </trkpt>
      <trkpt lat="45.58866" lon="4.70588">
        <ele>310.16247558594</ele>
        <time>2013-07-24T15:11:49Z</time>
      </trkpt>
      <trkpt lat="45.58867" lon="4.70554">
        <ele>311.12377929688</ele>
        <time>2013-07-24T15:11:55Z</time>
      </trkpt>
      <trkpt lat="45.58868" lon="4.70544">
        <ele>311.12377929688</ele>
        <time>2013-07-24T15:11:57Z</time>
      </trkpt>
      <trkpt lat="45.58873" lon="4.70532">
        <ele>312.08520507812</ele>
        <time>2013-07-24T15:12:02Z</time>
      </trkpt>
      <trkpt lat="45.58881" lon="4.70527">
        <ele>313.04650878906</ele>
        <time>2013-07-24T15:12:08Z</time>
      </trkpt>
      <trkpt lat="45.58886" lon="4.70513">
        <ele>314.48840332031</ele>
        <time>2013-07-24T15:12:14Z</time>
      </trkpt>
      <trkpt lat="45.58887" lon="4.70509">
        <ele>314.48840332031</ele>
        <time>2013-07-24T15:12:15Z</time>
      </trkpt>
      <trkpt lat="45.58892" lon="4.70478">
        <ele>313.52722167969</ele>
        <time>2013-07-24T15:12:24Z</time>
      </trkpt>
      <trkpt lat="45.58893" lon="4.70454">
        <ele>311.6044921875</ele>
        <time>2013-07-24T15:12:30Z</time>
      </trkpt>
      <trkpt lat="45.58895" lon="4.70415">
        <ele>310.16247558594</ele>
        <time>2013-07-24T15:12:39Z</time>
      </trkpt>
      <trkpt lat="45.58896" lon="4.70381">
        <ele>310.16247558594</ele>
        <time>2013-07-24T15:12:47Z</time>
      </trkpt>
      <trkpt lat="45.589" lon="4.70347">
        <ele>311.12377929688</ele>
        <time>2013-07-24T15:12:55Z</time>
      </trkpt>
      <trkpt lat="45.58904" lon="4.70316">
        <ele>312.08520507812</ele>
        <time>2013-07-24T15:13:02Z</time>
      </trkpt>
      <trkpt lat="45.58911" lon="4.70275">
        <ele>313.52722167969</ele>
        <time>2013-07-24T15:13:12Z</time>
      </trkpt>
      <trkpt lat="45.58921" lon="4.70238">
        <ele>314.96911621094</ele>
        <time>2013-07-24T15:13:21Z</time>
      </trkpt>
      <trkpt lat="45.58928" lon="4.70208">
        <ele>316.89172363281</ele>
        <time>2013-07-24T15:13:29Z</time>
      </trkpt>
      <trkpt lat="45.58933" lon="4.70176">
        <ele>319.29504394531</ele>
        <time>2013-07-24T15:13:37Z</time>
      </trkpt>
      <trkpt lat="45.58942" lon="4.70144">
        <ele>320.25634765625</ele>
        <time>2013-07-24T15:13:45Z</time>
      </trkpt>
      <trkpt lat="45.58953" lon="4.70108">
        <ele>321.69836425781</ele>
        <time>2013-07-24T15:13:54Z</time>
      </trkpt>
      <trkpt lat="45.58956" lon="4.70096">
        <ele>321.69836425781</ele>
        <time>2013-07-24T15:13:57Z</time>
      </trkpt>
      <trkpt lat="45.58965" lon="4.70093">
        <ele>322.65966796875</ele>
        <time>2013-07-24T15:14:01Z</time>
      </trkpt>
      <trkpt lat="45.58967" lon="4.70095">
        <ele>322.65966796875</ele>
        <time>2013-07-24T15:14:02Z</time>
      </trkpt>
      <trkpt lat="45.58993" lon="4.70122">
        <ele>322.65966796875</ele>
        <time>2013-07-24T15:14:12Z</time>
      </trkpt>
      <trkpt lat="45.59021" lon="4.70141">
        <ele>323.62097167969</ele>
        <time>2013-07-24T15:14:22Z</time>
      </trkpt>
      <trkpt lat="45.59046" lon="4.70155">
        <ele>325.54357910156</ele>
        <time>2013-07-24T15:14:31Z</time>
      </trkpt>
      <trkpt lat="45.59065" lon="4.70166">
        <ele>325.06298828125</ele>
        <time>2013-07-24T15:14:38Z</time>
      </trkpt>
      <trkpt lat="45.59098" lon="4.70181">
        <ele>323.62097167969</ele>
        <time>2013-07-24T15:14:48Z</time>
      </trkpt>
      <trkpt lat="45.59112" lon="4.70191">
        <ele>323.14038085938</ele>
        <time>2013-07-24T15:14:53Z</time>
      </trkpt>
      <trkpt lat="45.59126" lon="4.70209">
        <ele>323.62097167969</ele>
        <time>2013-07-24T15:14:59Z</time>
      </trkpt>
      <trkpt lat="45.59126" lon="4.7023">
        <ele>323.62097167969</ele>
        <time>2013-07-24T15:15:03Z</time>
      </trkpt>
      <trkpt lat="45.59122" lon="4.70258">
        <ele>323.62097167969</ele>
        <time>2013-07-24T15:15:08Z</time>
      </trkpt>
      <trkpt lat="45.59119" lon="4.70295">
        <ele>323.62097167969</ele>
        <time>2013-07-24T15:15:15Z</time>
      </trkpt>
      <trkpt lat="45.59114" lon="4.70334">
        <ele>322.65966796875</ele>
        <time>2013-07-24T15:15:22Z</time>
      </trkpt>
      <trkpt lat="45.5911" lon="4.70385">
        <ele>321.2177734375</ele>
        <time>2013-07-24T15:15:30Z</time>
      </trkpt>
      <trkpt lat="45.59106" lon="4.70429">
        <ele>320.25634765625</ele>
        <time>2013-07-24T15:15:36Z</time>
      </trkpt>
      <trkpt lat="45.59101" lon="4.70474">
        <ele>318.81433105469</ele>
        <time>2013-07-24T15:15:42Z</time>
      </trkpt>
      <trkpt lat="45.59094" lon="4.70491">
        <ele>317.37243652344</ele>
        <time>2013-07-24T15:15:46Z</time>
      </trkpt>
      <trkpt lat="45.59087" lon="4.70489">
        <ele>316.89172363281</ele>
        <time>2013-07-24T15:15:49Z</time>
      </trkpt>
      <trkpt lat="45.59081" lon="4.70482">
        <ele>315.93041992188</ele>
        <time>2013-07-24T15:15:53Z</time>
      </trkpt>
      <trkpt lat="45.59077" lon="4.7048">
        <ele>314.96911621094</ele>
        <time>2013-07-24T15:15:56Z</time>
      </trkpt>
      <trkpt lat="45.59076" lon="4.70475">
        <ele>316.89172363281</ele>
        <time>2013-07-24T15:16:02Z</time>
      </trkpt>
      <trkpt lat="45.59075" lon="4.70477">
        <ele>318.81433105469</ele>
        <time>2013-07-24T15:16:07Z</time>
      </trkpt>
    </trkseg>
  </trk>
</gpx>